Observation data for Palo Duro Canyon State Park Floor on 12/09/2018      Previous  Date  Next       Current Mesonet Observations  Soil Data  Daily Summary Page  Observations in Plain Language
KPD2 090600Z 27002KT M04/M07 A3033 RMK A01 T10431072  RH  081%=      5-min Rain = 0
KPD2 090601Z 27002KT M04/M07 A3033 RMK A01 T10441072  RH  081%=      5-min Rain = 0
KPD2 090602Z 28002KT M04/M07 A3033 RMK A01 T10441072  RH  081%=      5-min Rain = 0
KPD2 090603Z 28003KT M05/M07 A3033 RMK A01 T10451073  RH  081%=      5-min Rain = 0
KPD2 090604Z 29003KT M05/M07 A3033 RMK A01 T10461073  RH  081%=      5-min Rain = 0
KPD2 090605Z 29003KT M05/M07 A3033 RMK A01 T10461073  RH  082%=      5-min Rain = 0
KPD2 090606Z 29003KT M05/M07 A3033 RMK A01 T10471073  RH  082%=      5-min Rain = 0
KPD2 090607Z 29003KT M05/M07 A3033 RMK A01 T10471073  RH  082%=      5-min Rain = 0
KPD2 090608Z 28003KT M05/M07 A3033 RMK A01 T10471073  RH  082%=      5-min Rain = 0
KPD2 090609Z 28003KT M05/M07 A3033 RMK A01 T10471073  RH  082%=      5-min Rain = 0
KPD2 090610Z 27003KT M05/M07 A3033 RMK A01 T10471073  RH  082%=      5-min Rain = 0
KPD2 090611Z 28003KT M05/M07 A3033 RMK A01 T10471073  RH  082%=      5-min Rain = 0
KPD2 090612Z 28003KT M05/M07 A3033 RMK A01 T10471073  RH  082%=      5-min Rain = 0
KPD2 090613Z 29003KT M05/M07 A3033 RMK A01 T10471073  RH  083%=      5-min Rain = 0
KPD2 090614Z 30003KT M05/M07 A3033 RMK A01 T10471072  RH  083%=      5-min Rain = 0
KPD2 090615Z 30002KT M05/M07 A3033 RMK A01 T10471073  RH  083%=      5-min Rain = 0
KPD2 090616Z 30003KT M05/M07 A3033 RMK A01 T10471072  RH  083%=      5-min Rain = 0
KPD2 090617Z 29003KT M05/M07 A3033 RMK A01 T10481072  RH  083%=      5-min Rain = 0
KPD2 090618Z 28003KT M05/M07 A3033 RMK A01 T10471072  RH  083%=      5-min Rain = 0
KPD2 090619Z 28003KT M05/M07 A3033 RMK A01 T10471072  RH  083%=      5-min Rain = 0
KPD2 090620Z 28003KT M05/M07 A3033 RMK A01 T10471072  RH  083%=      5-min Rain = 0
KPD2 090621Z 29003KT M05/M07 A3033 RMK A01 T10471072  RH  083%=      5-min Rain = 0
KPD2 090622Z 30003KT M05/M07 A3033 RMK A01 T10471071  RH  083%=      5-min Rain = 0
KPD2 090623Z 31003KT M05/M07 A3033 RMK A01 T10461072  RH  083%=      5-min Rain = 0
KPD2 090624Z 32003KT M05/M07 A3033 RMK A01 T10471072  RH  082%=      5-min Rain = 0
KPD2 090625Z 33003KT M05/M07 A3033 RMK A01 T10471072  RH  082%=      5-min Rain = 0
KPD2 090626Z 34003KT M05/M07 A3033 RMK A01 T10471072  RH  082%=      5-min Rain = 0
KPD2 090627Z 34003KT M05/M07 A3033 RMK A01 T10471072  RH  082%=      5-min Rain = 0
KPD2 090628Z 33003KT M05/M07 A3033 RMK A01 T10471072  RH  082%=      5-min Rain = 0
KPD2 090629Z 32003KT M05/M07 A3033 RMK A01 T10471072  RH  083%=      5-min Rain = 0
KPD2 090630Z 31003KT M05/M07 A3033 RMK A01 T10471072  RH  082%=      5-min Rain = 0
KPD2 090631Z 30003KT M05/M07 A3033 RMK A01 T10471072  RH  082%=      5-min Rain = 0
KPD2 090632Z 30003KT M05/M07 A3033 RMK A01 T10471073  RH  082%=      5-min Rain = 0
KPD2 090633Z 29003KT M05/M07 A3033 RMK A01 T10461072  RH  082%=      5-min Rain = 0
KPD2 090634Z 29003KT M05/M07 A3033 RMK A01 T10451072  RH  082%=      5-min Rain = 0
KPD2 090635Z 29003KT M05/M07 A3033 RMK A01 T10461072  RH  082%=      5-min Rain = 0
KPD2 090636Z 29003KT M05/M07 A3033 RMK A01 T10451072  RH  081%=      5-min Rain = 0
KPD2 090637Z 30004KT M05/M07 A3033 RMK A01 T10451072  RH  081%=      5-min Rain = 0
KPD2 090638Z 30004KT M05/M07 A3033 RMK A01 T10451072  RH  081%=      5-min Rain = 0
KPD2 090639Z 29004KT M05/M07 A3033 RMK A01 T10451073  RH  081%=      5-min Rain = 0
KPD2 090640Z 29004KT M05/M07 A3033 RMK A01 T10451073  RH  081%=      5-min Rain = 0
KPD2 090641Z 30003KT M05/M07 A3033 RMK A01 T10451073  RH  081%=      5-min Rain = 0
KPD2 090642Z 31003KT M05/M07 A3033 RMK A01 T10451073  RH  080%=      5-min Rain = 0
KPD2 090643Z 31003KT M05/M07 A3033 RMK A01 T10451073  RH  080%=      5-min Rain = 0
KPD2 090644Z 31003KT M05/M07 A3033 RMK A01 T10451073  RH  081%=      5-min Rain = 0
KPD2 090645Z 31003KT M05/M07 A3033 RMK A01 T10451073  RH  081%=      5-min Rain = 0
KPD2 090646Z 31003KT M05/M07 A3033 RMK A01 T10451073  RH  081%=      5-min Rain = 0
KPD2 090647Z 31002KT M05/M07 A3033 RMK A01 T10451074  RH  081%=      5-min Rain = 0
KPD2 090648Z 31003KT M05/M07 A3033 RMK A01 T10461074  RH  081%=      5-min Rain = 0
KPD2 090649Z 33003KT M05/M07 A3033 RMK A01 T10461074  RH  081%=      5-min Rain = 0
KPD2 090650Z 33002KT M05/M07 A3033 RMK A01 T10461074  RH  081%=      5-min Rain = 0
KPD2 090651Z 33003KT M05/M07 A3033 RMK A01 T10461074  RH  081%=      5-min Rain = 0
KPD2 090652Z 32003KT M05/M07 A3033 RMK A01 T10461074  RH  081%=      5-min Rain = 0
KPD2 090653Z 32002KT M05/M07 A3033 RMK A01 T10471074  RH  081%=      5-min Rain = 0
KPD2 090654Z 32002KT M05/M08 A3033 RMK A01 T10471075  RH  081%=      5-min Rain = 0
KPD2 090655Z 31003KT M05/M08 A3033 RMK A01 T10481075  RH  081%=      5-min Rain = 0
KPD2 090656Z 31003KT M05/M08 A3033 RMK A01 T10481075  RH  082%=      5-min Rain = 0
KPD2 090657Z 30003KT M05/M08 A3033 RMK A01 T10481075  RH  082%=      5-min Rain = 0
KPD2 090658Z 31003KT M05/M08 A3033 RMK A01 T10491075  RH  082%=      5-min Rain = 0
KPD2 090659Z 30003KT M05/M08 A3033 RMK A01 T10491075  RH  082%=      5-min Rain = 0
KPD2 090700Z 30003KT M05/M08 A3033 RMK A01 T10491075  RH  082%=      5-min Rain = 0
KPD2 090701Z 31002KT M05/M08 A3033 RMK A01 T10501076  RH  082%=      5-min Rain = 0
KPD2 090702Z 30002KT M05/M08 A3033 RMK A01 T10501076  RH  082%=      5-min Rain = 0
KPD2 090703Z 30002KT M05/M08 A3033 RMK A01 T10501076  RH  082%=      5-min Rain = 0
KPD2 090704Z 31003KT M05/M08 A3033 RMK A01 T10511076  RH  082%=      5-min Rain = 0
KPD2 090705Z 32004KT M05/M08 A3033 RMK A01 T10511076  RH  083%=      5-min Rain = 0
KPD2 090706Z 32004KT M05/M08 A3033 RMK A01 T10511076  RH  083%=      5-min Rain = 0
KPD2 090707Z 34003KT M05/M08 A3033 RMK A01 T10511075  RH  083%=      5-min Rain = 0
KPD2 090708Z 33003KT M05/M08 A3033 RMK A01 T10501075  RH  083%=      5-min Rain = 0
KPD2 090709Z 33004KT M05/M07 A3033 RMK A01 T10501074  RH  083%=      5-min Rain = 0
KPD2 090710Z 33003KT M05/M07 A3033 RMK A01 T10491073  RH  083%=      5-min Rain = 0
KPD2 090711Z 34003KT M05/M07 A3033 RMK A01 T10481072  RH  083%=      5-min Rain = 0
KPD2 090712Z 33003KT M05/M07 A3033 RMK A01 T10471072  RH  083%=      5-min Rain = 0
KPD2 090713Z 32003KT M05/M07 A3033 RMK A01 T10461072  RH  082%=      5-min Rain = 0
KPD2 090714Z 32002KT M05/M07 A3033 RMK A01 T10461072  RH  082%=      5-min Rain = 0
KPD2 090715Z 31002KT M05/M07 A3033 RMK A01 T10461073  RH  082%=      5-min Rain = 0
KPD2 090716Z 31003KT M05/M07 A3033 RMK A01 T10471074  RH  082%=      5-min Rain = 0
KPD2 090717Z 31003KT M05/M07 A3033 RMK A01 T10471074  RH  082%=      5-min Rain = 0
KPD2 090718Z 31003KT M05/M07 A3033 RMK A01 T10481074  RH  082%=      5-min Rain = 0
KPD2 090719Z 32004KT M05/M08 A3033 RMK A01 T10481075  RH  082%=      5-min Rain = 0
KPD2 090720Z 32003KT M05/M08 A3033 RMK A01 T10481075  RH  082%=      5-min Rain = 0
KPD2 090721Z 32003KT M05/M08 A3033 RMK A01 T10491075  RH  082%=      5-min Rain = 0
KPD2 090722Z 31003KT M05/M08 A3033 RMK A01 T10491075  RH  082%=      5-min Rain = 0
KPD2 090723Z 31003KT M05/M08 A3033 RMK A01 T10501075  RH  082%=      5-min Rain = 0
KPD2 090724Z 32002KT M05/M08 A3033 RMK A01 T10501076  RH  082%=      5-min Rain = 0
KPD2 090725Z 32002KT M05/M08 A3033 RMK A01 T10511076  RH  083%=      5-min Rain = 0
KPD2 090726Z 31002KT M05/M08 A3033 RMK A01 T10501075  RH  083%=      5-min Rain = 0
KPD2 090727Z 34003KT M05/M08 A3032 RMK A01 T10511075  RH  083%=      5-min Rain = 0
KPD2 090728Z 33002KT M05/M08 A3032 RMK A01 T10511075  RH  083%=      5-min Rain = 0
KPD2 090729Z 33002KT M05/M08 A3032 RMK A01 T10511075  RH  083%=      5-min Rain = 0
KPD2 090730Z 33002KT M05/M08 A3032 RMK A01 T10511075  RH  083%=      5-min Rain = 0
KPD2 090731Z 33003KT M05/M07 A3032 RMK A01 T10501074  RH  084%=      5-min Rain = 0
KPD2 090732Z 33004KT M05/M07 A3032 RMK A01 T10491073  RH  084%=      5-min Rain = 0
KPD2 090733Z 34004KT M05/M07 A3032 RMK A01 T10481071  RH  084%=      5-min Rain = 0
KPD2 090734Z 35004KT M05/M07 A3032 RMK A01 T10471071  RH  083%=      5-min Rain = 0
KPD2 090735Z 34003KT M05/M07 A3032 RMK A01 T10461071  RH  083%=      5-min Rain = 0
KPD2 090736Z 33002KT M05/M07 A3032 RMK A01 T10451070  RH  082%=      5-min Rain = 0
KPD2 090737Z 35002KT M04/M07 A3032 RMK A01 T10441071  RH  082%=      5-min Rain = 0
KPD2 090738Z 34002KT M04/M07 A3032 RMK A01 T10441071  RH  082%=      5-min Rain = 0
KPD2 090739Z 33002KT M04/M07 A3032 RMK A01 T10441071  RH  081%=      5-min Rain = 0
KPD2 090740Z 32003KT M04/M07 A3032 RMK A01 T10441071  RH  081%=      5-min Rain = 0
KPD2 090741Z 31001KT M04/M07 A3031 RMK A01 T10431071  RH  081%=      5-min Rain = 0
KPD2 090742Z 33002KT M04/M07 A3031 RMK A01 T10431071  RH  081%=      5-min Rain = 0
KPD2 090743Z 34002KT M04/M07 A3031 RMK A01 T10431072  RH  081%=      5-min Rain = 0
KPD2 090744Z 34002KT M04/M07 A3031 RMK A01 T10441072  RH  081%=      5-min Rain = 0
KPD2 090745Z 34002KT M04/M07 A3031 RMK A01 T10441072  RH  081%=      5-min Rain = 0
KPD2 090746Z 34003KT M05/M07 A3031 RMK A01 T10451073  RH  081%=      5-min Rain = 0
KPD2 090747Z 34001KT M05/M07 A3031 RMK A01 T10451073  RH  081%=      5-min Rain = 0
KPD2 090748Z 35002KT M05/M07 A3031 RMK A01 T10451073  RH  081%=      5-min Rain = 0
KPD2 090749Z 01001KT M05/M07 A3031 RMK A01 T10451072  RH  081%=      5-min Rain = 0
KPD2 090750Z 01001KT M05/M07 A3031 RMK A01 T10461073  RH  081%=      5-min Rain = 0
KPD2 090751Z 35001KT M05/M07 A3031 RMK A01 T10461073  RH  081%=      5-min Rain = 0
KPD2 090752Z 32001KT M05/M07 A3031 RMK A01 T10461073  RH  081%=      5-min Rain = 0
KPD2 090753Z 30001KT M05/M07 A3031 RMK A01 T10471073  RH  082%=      5-min Rain = 0
KPD2 090754Z 30001KT M05/M07 A3031 RMK A01 T10471074  RH  082%=      5-min Rain = 0
KPD2 090755Z 29000KT M05/M08 A3031 RMK A01 T10481075  RH  082%=      5-min Rain = 0
KPD2 090756Z 00000KT M05/M07 A3032 RMK A01 T10481074  RH  082%=      5-min Rain = 0
KPD2 090757Z 25001KT M05/M07 A3032 RMK A01 T10491074  RH  082%=      5-min Rain = 0
KPD2 090758Z 25001KT M05/M07 A3032 RMK A01 T10491074  RH  083%=      5-min Rain = 0
KPD2 090759Z 00000KT M05/M07 A3032 RMK A01 T10491074  RH  083%=      5-min Rain = 0
KPD2 090800Z 00000KT M05/M08 A3032 RMK A01 T10501075  RH  083%=      5-min Rain = 0
KPD2 090801Z 00000KT M05/M08 A3032 RMK A01 T10511075  RH  083%=      5-min Rain = 0
KPD2 090802Z 00000KT M05/M08 A3032 RMK A01 T10511075  RH  083%=      5-min Rain = 0
KPD2 090803Z 00000KT M05/M08 A3032 RMK A01 T10511075  RH  084%=      5-min Rain = 0
KPD2 090804Z 00000KT M05/M08 A3032 RMK A01 T10521075  RH  084%=      5-min Rain = 0
KPD2 090805Z 25000KT M05/M08 A3032 RMK A01 T10521075  RH  084%=      5-min Rain = 0
KPD2 090806Z 25001KT M05/M08 A3032 RMK A01 T10531076  RH  084%=      5-min Rain = 0
KPD2 090807Z 26001KT M05/M08 A3032 RMK A01 T10531077  RH  084%=      5-min Rain = 0
KPD2 090808Z 27002KT M05/M08 A3032 RMK A01 T10531076  RH  084%=      5-min Rain = 0
KPD2 090809Z 29002KT M05/M08 A3032 RMK A01 T10541076  RH  084%=      5-min Rain = 0
KPD2 090810Z 30002KT M05/M08 A3032 RMK A01 T10541077  RH  085%=      5-min Rain = 0
KPD2 090811Z 29003KT M06/M08 A3032 RMK A01 T10551076  RH  085%=      5-min Rain = 0
KPD2 090812Z 29003KT M06/M08 A3032 RMK A01 T10551077  RH  085%=      5-min Rain = 0
KPD2 090813Z 29003KT M06/M08 A3033 RMK A01 T10561077  RH  085%=      5-min Rain = 0
KPD2 090814Z 29004KT M06/M08 A3033 RMK A01 T10561077  RH  085%=      5-min Rain = 0
KPD2 090815Z 29004KT M06/M08 A3033 RMK A01 T10571077  RH  085%=      5-min Rain = 0
KPD2 090816Z 29004KT M06/M08 A3033 RMK A01 T10571077  RH  086%=      5-min Rain = 0
KPD2 090817Z 29003KT M06/M08 A3033 RMK A01 T10571076  RH  086%=      5-min Rain = 0
KPD2 090818Z 30004KT M06/M08 A3033 RMK A01 T10561076  RH  086%=      5-min Rain = 0
KPD2 090819Z 31003KT M06/M08 A3033 RMK A01 T10571076  RH  086%=      5-min Rain = 0
KPD2 090820Z 32003KT M06/M08 A3033 RMK A01 T10571076  RH  086%=      5-min Rain = 0
KPD2 090821Z 31003KT M06/M08 A3033 RMK A01 T10571077  RH  086%=      5-min Rain = 0
KPD2 090822Z 30003KT M06/M08 A3033 RMK A01 T10571077  RH  086%=      5-min Rain = 0
KPD2 090823Z 31003KT M06/M08 A3033 RMK A01 T10581077  RH  086%=      5-min Rain = 0
KPD2 090824Z 32002KT M06/M08 A3033 RMK A01 T10571076  RH  087%=      5-min Rain = 0
KPD2 090825Z 33003KT M06/M08 A3033 RMK A01 T10581077  RH  087%=      5-min Rain = 0
KPD2 090826Z 32003KT M06/M08 A3033 RMK A01 T10581076  RH  087%=      5-min Rain = 0
KPD2 090827Z 32003KT M06/M08 A3033 RMK A01 T10571076  RH  087%=      5-min Rain = 0
KPD2 090828Z 32003KT M06/M08 A3033 RMK A01 T10571076  RH  087%=      5-min Rain = 0
KPD2 090829Z 32004KT M06/M08 A3033 RMK A01 T10571076  RH  087%=      5-min Rain = 0
KPD2 090830Z 31003KT M06/M08 A3033 RMK A01 T10571076  RH  086%=      5-min Rain = 0
KPD2 090831Z 31003KT M06/M08 A3033 RMK A01 T10571077  RH  086%=      5-min Rain = 0
KPD2 090832Z 31003KT M06/M08 A3033 RMK A01 T10581077  RH  086%=      5-min Rain = 0
KPD2 090833Z 31003KT M06/M08 A3033 RMK A01 T10581078  RH  086%=      5-min Rain = 0
KPD2 090834Z 31004KT M06/M08 A3033 RMK A01 T10581077  RH  086%=      5-min Rain = 0
KPD2 090835Z 31003KT M06/M08 A3033 RMK A01 T10581077  RH  086%=      5-min Rain = 0
KPD2 090836Z 31003KT M06/M08 A3033 RMK A01 T10581077  RH  086%=      5-min Rain = 0
KPD2 090837Z 31003KT M06/M08 A3033 RMK A01 T10581077  RH  086%=      5-min Rain = 0
KPD2 090838Z 32003KT M06/M08 A3033 RMK A01 T10581077  RH  087%=      5-min Rain = 0
KPD2 090839Z 32003KT M06/M08 A3033 RMK A01 T10581077  RH  087%=      5-min Rain = 0
KPD2 090840Z 31002KT M06/M08 A3033 RMK A01 T10581077  RH  086%=      5-min Rain = 0
KPD2 090841Z 32002KT M06/M08 A3033 RMK A01 T10581077  RH  087%=      5-min Rain = 0
KPD2 090842Z 32002KT M06/M08 A3033 RMK A01 T10581077  RH  087%=      5-min Rain = 0
KPD2 090843Z 32002KT M06/M08 A3033 RMK A01 T10581077  RH  087%=      5-min Rain = 0
KPD2 090844Z 30002KT M06/M08 A3033 RMK A01 T10581077  RH  087%=      5-min Rain = 0
KPD2 090845Z 30002KT M06/M08 A3033 RMK A01 T10581077  RH  087%=      5-min Rain = 0
KPD2 090846Z 30001KT M06/M08 A3033 RMK A01 T10581077  RH  087%=      5-min Rain = 0
KPD2 090847Z 30001KT M06/M08 A3033 RMK A01 T10581077  RH  087%=      5-min Rain = 0
KPD2 090848Z 30001KT M06/M08 A3032 RMK A01 T10581077  RH  087%=      5-min Rain = 0
KPD2 090849Z 32002KT M06/M08 A3032 RMK A01 T10581077  RH  087%=      5-min Rain = 0
KPD2 090850Z 33002KT M06/M08 A3033 RMK A01 T10581076  RH  087%=      5-min Rain = 0
KPD2 090851Z 33003KT M06/M08 A3033 RMK A01 T10581077  RH  087%=      5-min Rain = 0
KPD2 090852Z 34003KT M06/M08 A3033 RMK A01 T10581077  RH  087%=      5-min Rain = 0
KPD2 090853Z 35003KT M06/M08 A3033 RMK A01 T10591079  RH  086%=      5-min Rain = 0
KPD2 090854Z 34004KT M06/M08 A3033 RMK A01 T10601080  RH  086%=      5-min Rain = 0
KPD2 090855Z 34003KT M06/M08 A3033 RMK A01 T10611080  RH  086%=      5-min Rain = 0
KPD2 090856Z 33005KT M06/M08 A3033 RMK A01 T10611079  RH  087%=      5-min Rain = 0
KPD2 090857Z 34004KT M06/M08 A3033 RMK A01 T10601077  RH  088%=      5-min Rain = 0
KPD2 090858Z 34004KT M06/M07 A3033 RMK A01 T10581074  RH  088%=      5-min Rain = 0
KPD2 090859Z 33004KT M06/M07 A3033 RMK A01 T10571073  RH  088%=      5-min Rain = 0
KPD2 090900Z 33003KT M06/M07 A3033 RMK A01 T10561073  RH  088%=      5-min Rain = 0
KPD2 090901Z 33002KT M06/M07 A3033 RMK A01 T10561073  RH  088%=      5-min Rain = 0
KPD2 090902Z 32002KT M06/M07 A3033 RMK A01 T10561074  RH  088%=      5-min Rain = 0
KPD2 090903Z 31003KT M06/M07 A3033 RMK A01 T10561073  RH  087%=      5-min Rain = 0
KPD2 090904Z 31003KT M06/M07 A3033 RMK A01 T10551072  RH  087%=      5-min Rain = 0
KPD2 090905Z 31003KT M05/M07 A3033 RMK A01 T10541072  RH  087%=      5-min Rain = 0
KPD2 090906Z 31002KT M05/M07 A3033 RMK A01 T10541073  RH  087%=      5-min Rain = 0
KPD2 090907Z 30003KT M05/M07 A3033 RMK A01 T10541073  RH  086%=      5-min Rain = 0
KPD2 090908Z 31003KT M05/M07 A3033 RMK A01 T10541074  RH  086%=      5-min Rain = 0
KPD2 090909Z 31003KT M06/M08 A3033 RMK A01 T10551075  RH  086%=      5-min Rain = 0
KPD2 090910Z 31003KT M06/M08 A3033 RMK A01 T10551075  RH  086%=      5-min Rain = 0
KPD2 090911Z 32003KT M06/M08 A3033 RMK A01 T10551075  RH  086%=      5-min Rain = 0
KPD2 090912Z 32002KT M06/M08 A3033 RMK A01 T10551075  RH  086%=      5-min Rain = 0
KPD2 090913Z 32003KT M06/M08 A3033 RMK A01 T10561076  RH  086%=      5-min Rain = 0
KPD2 090914Z 33002KT M06/M08 A3033 RMK A01 T10561076  RH  086%=      5-min Rain = 0
KPD2 090915Z 33002KT M06/M08 A3033 RMK A01 T10561076  RH  086%=      5-min Rain = 0
KPD2 090916Z 33002KT M06/M08 A3033 RMK A01 T10561075  RH  086%=      5-min Rain = 0
KPD2 090917Z 32003KT M06/M08 A3033 RMK A01 T10561076  RH  086%=      5-min Rain = 0
KPD2 090918Z 32002KT M06/M08 A3033 RMK A01 T10561076  RH  086%=      5-min Rain = 0
KPD2 090919Z 32002KT M06/M08 A3033 RMK A01 T10571076  RH  086%=      5-min Rain = 0
KPD2 090920Z 30004KT M06/M08 A3033 RMK A01 T10571077  RH  086%=      5-min Rain = 0
KPD2 090921Z 32004KT M06/M08 A3033 RMK A01 T10571077  RH  086%=      5-min Rain = 0
KPD2 090922Z 33004KT M06/M08 A3033 RMK A01 T10571077  RH  086%=      5-min Rain = 0
KPD2 090923Z 33005KT M06/M08 A3033 RMK A01 T10571076  RH  087%=      5-min Rain = 0
KPD2 090924Z 35004KT M06/M08 A3033 RMK A01 T10571076  RH  087%=      5-min Rain = 0
KPD2 090925Z 34005KT M06/M08 A3033 RMK A01 T10571076  RH  087%=      5-min Rain = 0
KPD2 090926Z 33005KT M06/M08 A3033 RMK A01 T10571076  RH  086%=      5-min Rain = 0
KPD2 090927Z 34005KT M06/M08 A3033 RMK A01 T10561076  RH  086%=      5-min Rain = 0
KPD2 090928Z 34005KT M06/M08 A3033 RMK A01 T10561076  RH  086%=      5-min Rain = 0
KPD2 090929Z 34004KT M06/M08 A3033 RMK A01 T10561076  RH  086%=      5-min Rain = 0
KPD2 090930Z 34004KT M06/M08 A3033 RMK A01 T10561076  RH  086%=      5-min Rain = 0
KPD2 090931Z 33005KT M06/M08 A3033 RMK A01 T10561075  RH  087%=      5-min Rain = 0
KPD2 090932Z 33004KT M06/M07 A3033 RMK A01 T10551074  RH  087%=      5-min Rain = 0
KPD2 090933Z 34004KT M06/M07 A3033 RMK A01 T10551074  RH  086%=      5-min Rain = 0
KPD2 090934Z 36003KT M06/M07 A3033 RMK A01 T10551074  RH  086%=      5-min Rain = 0
KPD2 090935Z 34003KT M06/M08 A3033 RMK A01 T10551075  RH  086%=      5-min Rain = 0
KPD2 090936Z 35003KT M06/M08 A3033 RMK A01 T10551075  RH  086%=      5-min Rain = 0
KPD2 090937Z 34004KT M06/M08 A3033 RMK A01 T10551075  RH  086%=      5-min Rain = 0
KPD2 090938Z 34003KT M06/M08 A3033 RMK A01 T10561076  RH  086%=      5-min Rain = 0
KPD2 090939Z 35004KT M06/M08 A3033 RMK A01 T10561076  RH  086%=      5-min Rain = 0
KPD2 090940Z 35003KT M06/M08 A3033 RMK A01 T10561076  RH  086%=      5-min Rain = 0
KPD2 090941Z 33003KT M06/M08 A3033 RMK A01 T10551075  RH  086%=      5-min Rain = 0
KPD2 090942Z 34002KT M05/M07 A3033 RMK A01 T10541073  RH  086%=      5-min Rain = 0
KPD2 090943Z 33003KT M05/M07 A3033 RMK A01 T10541073  RH  086%=      5-min Rain = 0
KPD2 090944Z 34003KT M05/M07 A3033 RMK A01 T10531073  RH  086%=      5-min Rain = 0
KPD2 090945Z 35002KT M05/M07 A3033 RMK A01 T10531073  RH  086%=      5-min Rain = 0
KPD2 090946Z 32003KT M05/M07 A3033 RMK A01 T10521073  RH  086%=      5-min Rain = 0
KPD2 090947Z 32002KT M05/M07 A3033 RMK A01 T10521073  RH  085%=      5-min Rain = 0
KPD2 090948Z 32003KT M05/M07 A3033 RMK A01 T10521073  RH  085%=      5-min Rain = 0
KPD2 090949Z 32003KT M05/M07 A3033 RMK A01 T10521074  RH  085%=      5-min Rain = 0
KPD2 090950Z 32004KT M05/M07 A3033 RMK A01 T10521074  RH  085%=      5-min Rain = 0
KPD2 090951Z 33003KT M05/M07 A3033 RMK A01 T10521074  RH  085%=      5-min Rain = 0
KPD2 090952Z 32004KT M05/M07 A3033 RMK A01 T10521074  RH  085%=      5-min Rain = 0
KPD2 090953Z 32004KT M05/M07 A3033 RMK A01 T10521074  RH  085%=      5-min Rain = 0
KPD2 090954Z 31004KT M05/M07 A3033 RMK A01 T10511073  RH  085%=      5-min Rain = 0
KPD2 090955Z 31003KT M05/M07 A3033 RMK A01 T10511073  RH  084%=      5-min Rain = 0
KPD2 090956Z 31003KT M05/M07 A3033 RMK A01 T10511073  RH  084%=      5-min Rain = 0
KPD2 090957Z 31002KT M05/M07 A3033 RMK A01 T10511074  RH  084%=      5-min Rain = 0
KPD2 090958Z 32002KT M05/M07 A3033 RMK A01 T10511074  RH  084%=      5-min Rain = 0
KPD2 090959Z 32003KT M05/M08 A3033 RMK A01 T10521075  RH  084%=      5-min Rain = 0
KPD2 091000Z 32003KT M05/M08 A3033 RMK A01 T10531076  RH  084%=      5-min Rain = 0
KPD2 091001Z 31003KT M05/M08 A3033 RMK A01 T10531076  RH  084%=      5-min Rain = 0
KPD2 091002Z 32003KT M05/M08 A3033 RMK A01 T10531075  RH  084%=      5-min Rain = 0
KPD2 091003Z 32003KT M05/M08 A3033 RMK A01 T10531075  RH  085%=      5-min Rain = 0
KPD2 091004Z 33002KT M05/M08 A3033 RMK A01 T10531075  RH  085%=      5-min Rain = 0
KPD2 091005Z 33003KT M05/M08 A3033 RMK A01 T10541076  RH  085%=      5-min Rain = 0
KPD2 091006Z 33003KT M05/M08 A3033 RMK A01 T10541075  RH  085%=      5-min Rain = 0
KPD2 091007Z 32003KT M05/M08 A3033 RMK A01 T10541076  RH  085%=      5-min Rain = 0
KPD2 091008Z 32003KT M06/M08 A3033 RMK A01 T10551076  RH  085%=      5-min Rain = 0
KPD2 091009Z 32003KT M06/M08 A3033 RMK A01 T10551077  RH  085%=      5-min Rain = 0
KPD2 091010Z 31002KT M06/M08 A3033 RMK A01 T10561077  RH  085%=      5-min Rain = 0
KPD2 091011Z 32002KT M06/M08 A3033 RMK A01 T10561076  RH  085%=      5-min Rain = 0
KPD2 091012Z 32002KT M06/M08 A3033 RMK A01 T10561076  RH  086%=      5-min Rain = 0
KPD2 091013Z 31003KT M06/M08 A3033 RMK A01 T10561076  RH  086%=      5-min Rain = 0
KPD2 091014Z 31003KT M06/M08 A3033 RMK A01 T10561076  RH  086%=      5-min Rain = 0
KPD2 091015Z 31003KT M06/M08 A3033 RMK A01 T10561076  RH  086%=      5-min Rain = 0
KPD2 091016Z 32003KT M06/M08 A3033 RMK A01 T10561076  RH  086%=      5-min Rain = 0
KPD2 091017Z 31004KT M06/M08 A3033 RMK A01 T10561076  RH  086%=      5-min Rain = 0
KPD2 091018Z 31004KT M06/M08 A3033 RMK A01 T10561077  RH  086%=      5-min Rain = 0
KPD2 091019Z 31004KT M06/M08 A3033 RMK A01 T10571078  RH  085%=      5-min Rain = 0
KPD2 091020Z 30003KT M06/M08 A3033 RMK A01 T10571078  RH  085%=      5-min Rain = 0
KPD2 091021Z 30003KT M06/M08 A3033 RMK A01 T10571078  RH  086%=      5-min Rain = 0
KPD2 091022Z 31003KT M06/M08 A3033 RMK A01 T10581078  RH  086%=      5-min Rain = 0
KPD2 091023Z 30003KT M06/M08 A3033 RMK A01 T10571078  RH  086%=      5-min Rain = 0
KPD2 091024Z 31003KT M06/M08 A3033 RMK A01 T10571077  RH  086%=      5-min Rain = 0
KPD2 091025Z 30003KT M06/M08 A3033 RMK A01 T10571077  RH  086%=      5-min Rain = 0
KPD2 091026Z 30003KT M06/M08 A3033 RMK A01 T10571077  RH  086%=      5-min Rain = 0
KPD2 091027Z 30002KT M06/M08 A3033 RMK A01 T10571077  RH  086%=      5-min Rain = 0
KPD2 091028Z 30003KT M06/M08 A3033 RMK A01 T10571077  RH  086%=      5-min Rain = 0
KPD2 091029Z 31003KT M06/M08 A3033 RMK A01 T10571077  RH  086%=      5-min Rain = 0
KPD2 091030Z 31003KT M06/M08 A3033 RMK A01 T10571077  RH  086%=      5-min Rain = 0
KPD2 091031Z 31003KT M06/M08 A3033 RMK A01 T10571077  RH  086%=      5-min Rain = 0
KPD2 091032Z 33003KT M06/M08 A3033 RMK A01 T10581078  RH  086%=      5-min Rain = 0
KPD2 091033Z 33002KT M06/M08 A3033 RMK A01 T10581078  RH  086%=      5-min Rain = 0
KPD2 091034Z 33002KT M06/M08 A3033 RMK A01 T10581078  RH  086%=      5-min Rain = 0
KPD2 091035Z 33002KT M06/M08 A3033 RMK A01 T10581078  RH  086%=      5-min Rain = 0
KPD2 091036Z 33003KT M06/M08 A3033 RMK A01 T10581078  RH  086%=      5-min Rain = 0
KPD2 091037Z 32003KT M06/M08 A3033 RMK A01 T10581078  RH  086%=      5-min Rain = 0
KPD2 091038Z 33004KT M06/M08 A3033 RMK A01 T10581078  RH  086%=      5-min Rain = 0
KPD2 091039Z 33004KT M06/M08 A3033 RMK A01 T10591078  RH  086%=      5-min Rain = 0
KPD2 091040Z 33004KT M06/M08 A3033 RMK A01 T10591079  RH  086%=      5-min Rain = 0
KPD2 091041Z 33003KT M06/M08 A3033 RMK A01 T10601079  RH  086%=      5-min Rain = 0
KPD2 091042Z 32004KT M06/M08 A3033 RMK A01 T10601079  RH  087%=      5-min Rain = 0
KPD2 091043Z 33004KT M06/M08 A3033 RMK A01 T10591078  RH  087%=      5-min Rain = 0
KPD2 091044Z 33005KT M06/M08 A3033 RMK A01 T10591077  RH  087%=      5-min Rain = 0
KPD2 091045Z 34005KT M06/M08 A3033 RMK A01 T10581076  RH  087%=      5-min Rain = 0
KPD2 091046Z 35004KT M06/M08 A3033 RMK A01 T10571075  RH  087%=      5-min Rain = 0
KPD2 091047Z 34004KT M06/M08 A3033 RMK A01 T10561075  RH  087%=      5-min Rain = 0
KPD2 091048Z 34004KT M06/M08 A3033 RMK A01 T10571075  RH  087%=      5-min Rain = 0
KPD2 091049Z 33004KT M06/M08 A3033 RMK A01 T10561075  RH  087%=      5-min Rain = 0
KPD2 091050Z 33005KT M06/M08 A3033 RMK A01 T10561075  RH  087%=      5-min Rain = 0
KPD2 091051Z 33005KT M06/M08 A3033 RMK A01 T10561075  RH  086%=      5-min Rain = 0
KPD2 091052Z 33005KT M06/M08 A3033 RMK A01 T10551075  RH  086%=      5-min Rain = 0
KPD2 091053Z 32005KT M06/M08 A3033 RMK A01 T10551075  RH  086%=      5-min Rain = 0
KPD2 091054Z 32005KT M06/M08 A3033 RMK A01 T10551075  RH  086%=      5-min Rain = 0
KPD2 091055Z 33005KT M06/M08 A3033 RMK A01 T10551076  RH  086%=      5-min Rain = 0
KPD2 091056Z 33005KT M06/M08 A3033 RMK A01 T10551075  RH  086%=      5-min Rain = 0
KPD2 091057Z 33004KT M05/M07 A3033 RMK A01 T10541074  RH  086%=      5-min Rain = 0
KPD2 091058Z 33005KT M05/M07 A3033 RMK A01 T10541074  RH  086%=      5-min Rain = 0
KPD2 091059Z 31005KT M05/M08 A3033 RMK A01 T10541075  RH  086%=      5-min Rain = 0
KPD2 091100Z 31005KT M05/M08 A3033 RMK A01 T10541075  RH  086%=      5-min Rain = 0
KPD2 091101Z 31006KT M05/M08 A3033 RMK A01 T10541075  RH  086%=      5-min Rain = 0
KPD2 091102Z 31005KT M05/M07 A3033 RMK A01 T10541074  RH  085%=      5-min Rain = 0
KPD2 091103Z 32004KT M05/M07 A3033 RMK A01 T10531074  RH  085%=      5-min Rain = 0
KPD2 091104Z 31004KT M05/M07 A3033 RMK A01 T10531074  RH  085%=      5-min Rain = 0
KPD2 091105Z 30005KT M05/M07 A3033 RMK A01 T10521074  RH  085%=      5-min Rain = 0
KPD2 091106Z 30004KT M05/M07 A3033 RMK A01 T10521074  RH  085%=      5-min Rain = 0
KPD2 091107Z 32003KT M05/M07 A3033 RMK A01 T10521074  RH  085%=      5-min Rain = 0
KPD2 091108Z 30002KT M05/M08 A3033 RMK A01 T10521075  RH  084%=      5-min Rain = 0
KPD2 091109Z 31002KT M05/M08 A3033 RMK A01 T10531075  RH  084%=      5-min Rain = 0
KPD2 091110Z 31005KT M05/M08 A3033 RMK A01 T10531076  RH  084%=      5-min Rain = 0
KPD2 091111Z 32004KT M05/M08 A3033 RMK A01 T10541076  RH  084%=      5-min Rain = 0
KPD2 091112Z 33004KT M05/M08 A3033 RMK A01 T10531075  RH  085%=      5-min Rain = 0
KPD2 091113Z 33005KT M05/M08 A3033 RMK A01 T10531075  RH  085%=      5-min Rain = 0
KPD2 091114Z 34004KT M05/M08 A3033 RMK A01 T10541076  RH  084%=      5-min Rain = 0
KPD2 091115Z 36003KT M05/M08 A3033 RMK A01 T10541077  RH  084%=      5-min Rain = 0
KPD2 091116Z 34004KT M06/M08 A3033 RMK A01 T10551077  RH  084%=      5-min Rain = 0
KPD2 091117Z 36005KT M06/M08 A3033 RMK A01 T10561078  RH  085%=      5-min Rain = 0
KPD2 091118Z 36003KT M06/M08 A3033 RMK A01 T10561077  RH  085%=      5-min Rain = 0
KPD2 091119Z 35002KT M06/M08 A3033 RMK A01 T10561076  RH  086%=      5-min Rain = 0
KPD2 091120Z 36003KT M06/M08 A3033 RMK A01 T10561076  RH  086%=      5-min Rain = 0
KPD2 091121Z 33003KT M06/M08 A3033 RMK A01 T10561076  RH  086%=      5-min Rain = 0
KPD2 091122Z 32004KT M06/M08 A3033 RMK A01 T10561076  RH  086%=      5-min Rain = 0
KPD2 091123Z 33004KT M06/M08 A3033 RMK A01 T10561076  RH  086%=      5-min Rain = 0
KPD2 091124Z 32004KT M06/M08 A3033 RMK A01 T10551075  RH  086%=      5-min Rain = 0
KPD2 091125Z 33003KT M05/M07 A3033 RMK A01 T10541074  RH  086%=      5-min Rain = 0
KPD2 091126Z 34002KT M05/M08 A3033 RMK A01 T10541075  RH  086%=      5-min Rain = 0
KPD2 091127Z 34002KT M05/M08 A3033 RMK A01 T10541075  RH  085%=      5-min Rain = 0
KPD2 091128Z 32003KT M06/M08 A3033 RMK A01 T10551075  RH  085%=      5-min Rain = 0
KPD2 091129Z 31003KT M05/M08 A3033 RMK A01 T10541075  RH  085%=      5-min Rain = 0
KPD2 091130Z 31003KT M06/M08 A3033 RMK A01 T10551076  RH  085%=      5-min Rain = 0
KPD2 091131Z 32002KT M06/M08 A3033 RMK A01 T10551076  RH  085%=      5-min Rain = 0
KPD2 091132Z 31002KT M06/M08 A3033 RMK A01 T10551076  RH  085%=      5-min Rain = 0
KPD2 091133Z 31001KT M06/M08 A3033 RMK A01 T10561076  RH  085%=      5-min Rain = 0
KPD2 091134Z 31001KT M06/M08 A3033 RMK A01 T10551076  RH  086%=      5-min Rain = 0
KPD2 091135Z 31001KT M06/M08 A3033 RMK A01 T10561076  RH  086%=      5-min Rain = 0
KPD2 091136Z 31002KT M06/M08 A3033 RMK A01 T10561077  RH  086%=      5-min Rain = 0
KPD2 091137Z 30002KT M06/M08 A3033 RMK A01 T10571077  RH  086%=      5-min Rain = 0
KPD2 091138Z 29002KT M06/M08 A3033 RMK A01 T10571078  RH  085%=      5-min Rain = 0
KPD2 091139Z 29001KT M06/M08 A3033 RMK A01 T10581078  RH  086%=      5-min Rain = 0
KPD2 091140Z 29001KT M06/M08 A3033 RMK A01 T10581078  RH  086%=      5-min Rain = 0
KPD2 091141Z 30001KT M06/M08 A3033 RMK A01 T10581078  RH  086%=      5-min Rain = 0
KPD2 091142Z 30001KT M06/M08 A3033 RMK A01 T10581078  RH  086%=      5-min Rain = 0
KPD2 091143Z 30000KT M06/M08 A3033 RMK A01 T10581078  RH  086%=      5-min Rain = 0
KPD2 091144Z 30000KT M06/M08 A3033 RMK A01 T10581077  RH  087%=      5-min Rain = 0
KPD2 091145Z 31001KT M06/M08 A3033 RMK A01 T10591078  RH  087%=      5-min Rain = 0
KPD2 091146Z 31001KT M06/M08 A3033 RMK A01 T10591078  RH  087%=      5-min Rain = 0
KPD2 091147Z 31002KT M06/M08 A3033 RMK A01 T10591077  RH  087%=      5-min Rain = 0
KPD2 091148Z 31002KT M06/M08 A3033 RMK A01 T10591077  RH  087%=      5-min Rain = 0
KPD2 091149Z 31002KT M06/M08 A3033 RMK A01 T10581076  RH  087%=      5-min Rain = 0
KPD2 091150Z 31001KT M06/M08 A3033 RMK A01 T10571075  RH  087%=      5-min Rain = 0
KPD2 091151Z 33002KT M06/M08 A3033 RMK A01 T10571075  RH  087%=      5-min Rain = 0
KPD2 091152Z 33002KT M06/M08 A3033 RMK A01 T10571075  RH  087%=      5-min Rain = 0
KPD2 091153Z 33001KT M06/M08 A3033 RMK A01 T10571076  RH  087%=      5-min Rain = 0
KPD2 091154Z 32001KT M06/M08 A3033 RMK A01 T10591078  RH  086%=      5-min Rain = 0
KPD2 091155Z 31002KT M06/M08 A3033 RMK A01 T10601079  RH  086%=      5-min Rain = 0
KPD2 091156Z 29002KT M06/M08 A3033 RMK A01 T10601080  RH  086%=      5-min Rain = 0
KPD2 091157Z 28003KT M06/M08 A3033 RMK A01 T10611080  RH  087%=      5-min Rain = 0
KPD2 091158Z 30003KT M06/M08 A3033 RMK A01 T10621080  RH  087%=      5-min Rain = 0
KPD2 091159Z 30003KT M06/M08 A3033 RMK A01 T10621080  RH  087%=      5-min Rain = 0
KPD2 091200Z 29003KT M06/M08 A3033 RMK A01 T10631081  RH  087%=      5-min Rain = 0
KPD2 091201Z 29002KT M06/M08 A3033 RMK A01 T10631081  RH  087%=      5-min Rain = 0
KPD2 091202Z 29002KT M06/M08 A3033 RMK A01 T10641081  RH  087%=      5-min Rain = 0
KPD2 091203Z 28002KT M06/M08 A3033 RMK A01 T10641082  RH  088%=      5-min Rain = 0
KPD2 091204Z 28003KT M07/M08 A3033 RMK A01 T10651082  RH  088%=      5-min Rain = 0
KPD2 091205Z 28003KT M07/M08 A3033 RMK A01 T10651082  RH  088%=      5-min Rain = 0
KPD2 091206Z 28003KT M07/M08 A3033 RMK A01 T10651082  RH  088%=      5-min Rain = 0
KPD2 091207Z 29002KT M07/M08 A3033 RMK A01 T10651082  RH  088%=      5-min Rain = 0
KPD2 091208Z 29003KT M07/M08 A3033 RMK A01 T10661082  RH  088%=      5-min Rain = 0
KPD2 091209Z 29003KT M07/M08 A3033 RMK A01 T10661082  RH  089%=      5-min Rain = 0
KPD2 091210Z 30003KT M07/M08 A3033 RMK A01 T10661082  RH  089%=      5-min Rain = 0
KPD2 091211Z 30003KT M07/M08 A3033 RMK A01 T10671082  RH  089%=      5-min Rain = 0
KPD2 091212Z 30003KT M07/M08 A3033 RMK A01 T10671082  RH  089%=      5-min Rain = 0
KPD2 091213Z 30002KT M07/M08 A3033 RMK A01 T10671082  RH  089%=      5-min Rain = 0
KPD2 091214Z 29002KT M07/M08 A3033 RMK A01 T10671082  RH  089%=      5-min Rain = 0
KPD2 091215Z 28002KT M07/M08 A3033 RMK A01 T10681082  RH  090%=      5-min Rain = 0
KPD2 091216Z 28002KT M07/M08 A3033 RMK A01 T10671081  RH  090%=      5-min Rain = 0
KPD2 091217Z 28003KT M07/M08 A3033 RMK A01 T10671081  RH  090%=      5-min Rain = 0
KPD2 091218Z 28002KT M07/M08 A3033 RMK A01 T10671081  RH  090%=      5-min Rain = 0
KPD2 091219Z 29002KT M07/M08 A3033 RMK A01 T10671080  RH  090%=      5-min Rain = 0
KPD2 091220Z 29001KT M07/M08 A3034 RMK A01 T10661080  RH  090%=      5-min Rain = 0
KPD2 091221Z 29002KT M07/M08 A3034 RMK A01 T10671080  RH  090%=      5-min Rain = 0
KPD2 091222Z 31002KT M07/M08 A3034 RMK A01 T10671081  RH  090%=      5-min Rain = 0
KPD2 091223Z 32002KT M07/M08 A3034 RMK A01 T10671081  RH  090%=      5-min Rain = 0
KPD2 091224Z 32001KT M07/M08 A3034 RMK A01 T10671081  RH  090%=      5-min Rain = 0
KPD2 091225Z 32001KT M07/M08 A3034 RMK A01 T10681082  RH  090%=      5-min Rain = 0
KPD2 091226Z 33003KT M07/M08 A3034 RMK A01 T10681082  RH  090%=      5-min Rain = 0
KPD2 091227Z 33003KT M07/M08 A3034 RMK A01 T10681082  RH  090%=      5-min Rain = 0
KPD2 091228Z 33003KT M07/M08 A3034 RMK A01 T10681081  RH  090%=      5-min Rain = 0
KPD2 091229Z 34003KT M07/M08 A3034 RMK A01 T10671080  RH  091%=      5-min Rain = 0
KPD2 091230Z 33003KT M07/M08 A3034 RMK A01 T10661078  RH  091%=      5-min Rain = 0
KPD2 091231Z 33003KT M07/M08 A3034 RMK A01 T10651078  RH  091%=      5-min Rain = 0
KPD2 091232Z 33002KT M07/M08 A3034 RMK A01 T10651077  RH  091%=      5-min Rain = 0
KPD2 091233Z 33002KT M06/M08 A3034 RMK A01 T10641077  RH  091%=      5-min Rain = 0
KPD2 091234Z 32003KT M06/M08 A3034 RMK A01 T10641076  RH  091%=      5-min Rain = 0
KPD2 091235Z 31003KT M06/M08 A3034 RMK A01 T10631076  RH  091%=      5-min Rain = 0
KPD2 091236Z 31003KT M06/M08 A3034 RMK A01 T10631077  RH  090%=      5-min Rain = 0
KPD2 091237Z 31003KT M06/M08 A3034 RMK A01 T10631076  RH  090%=      5-min Rain = 0
KPD2 091238Z 29002KT M06/M08 A3034 RMK A01 T10621076  RH  090%=      5-min Rain = 0
KPD2 091239Z 29002KT M06/M08 A3034 RMK A01 T10621076  RH  090%=      5-min Rain = 0
KPD2 091240Z 29002KT M06/M08 A3034 RMK A01 T10621077  RH  089%=      5-min Rain = 0
KPD2 091241Z 30002KT M06/M08 A3034 RMK A01 T10621078  RH  089%=      5-min Rain = 0
KPD2 091242Z 30002KT M06/M08 A3034 RMK A01 T10631078  RH  089%=      5-min Rain = 0
KPD2 091243Z 31002KT M06/M08 A3034 RMK A01 T10631079  RH  089%=      5-min Rain = 0
KPD2 091244Z 31001KT M06/M08 A3034 RMK A01 T10631079  RH  089%=      5-min Rain = 0
KPD2 091245Z 31001KT M06/M08 A3034 RMK A01 T10631078  RH  089%=      5-min Rain = 0
KPD2 091246Z 31001KT M06/M08 A3034 RMK A01 T10631079  RH  089%=      5-min Rain = 0
KPD2 091247Z 31002KT M06/M08 A3034 RMK A01 T10631079  RH  089%=      5-min Rain = 0
KPD2 091248Z 31002KT M06/M08 A3034 RMK A01 T10641079  RH  089%=      5-min Rain = 0
KPD2 091249Z 31002KT M06/M08 A3034 RMK A01 T10631079  RH  089%=      5-min Rain = 0
KPD2 091250Z 31001KT M06/M08 A3035 RMK A01 T10641079  RH  089%=      5-min Rain = 0
KPD2 091251Z 31001KT M06/M08 A3035 RMK A01 T10641080  RH  089%=      5-min Rain = 0
KPD2 091252Z 32001KT M07/M08 A3035 RMK A01 T10651081  RH  089%=      5-min Rain = 0
KPD2 091253Z 32001KT M07/M08 A3035 RMK A01 T10651081  RH  088%=      5-min Rain = 0
KPD2 091254Z 34002KT M07/M08 A3035 RMK A01 T10661082  RH  088%=      5-min Rain = 0
KPD2 091255Z 34002KT M07/M08 A3035 RMK A01 T10661081  RH  089%=      5-min Rain = 0
KPD2 091256Z 35003KT M07/M08 A3035 RMK A01 T10651081  RH  089%=      5-min Rain = 0
KPD2 091257Z 34002KT M07/M08 A3035 RMK A01 T10661081  RH  089%=      5-min Rain = 0
KPD2 091258Z 35003KT M07/M08 A3035 RMK A01 T10651079  RH  090%=      5-min Rain = 0
KPD2 091259Z 35003KT M06/M08 A3035 RMK A01 T10631077  RH  090%=      5-min Rain = 0
KPD2 091300Z 35003KT M06/M08 A3035 RMK A01 T10621076  RH  090%=      5-min Rain = 0
KPD2 091301Z 35003KT M06/M07 A3035 RMK A01 T10611074  RH  090%=      5-min Rain = 0
KPD2 091302Z 35003KT M06/M07 A3035 RMK A01 T10601074  RH  090%=      5-min Rain = 0
KPD2 091303Z 35002KT M06/M07 A3035 RMK A01 T10601074  RH  090%=      5-min Rain = 0
KPD2 091304Z 33002KT M06/M08 A3035 RMK A01 T10601075  RH  089%=      5-min Rain = 0
KPD2 091305Z 32001KT M06/M08 A3035 RMK A01 T10611077  RH  089%=      5-min Rain = 0
KPD2 091306Z 31001KT M06/M08 A3035 RMK A01 T10621079  RH  088%=      5-min Rain = 0
KPD2 091307Z 31002KT M06/M08 A3035 RMK A01 T10641080  RH  088%=      5-min Rain = 0
KPD2 091308Z 30001KT M07/M08 A3035 RMK A01 T10651082  RH  088%=      5-min Rain = 0
KPD2 091309Z 32002KT M07/M08 A3035 RMK A01 T10661082  RH  088%=      5-min Rain = 0
KPD2 091310Z 32002KT M07/M08 A3035 RMK A01 T10661082  RH  088%=      5-min Rain = 0
KPD2 091311Z 31002KT M07/M08 A3035 RMK A01 T10671083  RH  088%=      5-min Rain = 0
KPD2 091312Z 30002KT M07/M08 A3035 RMK A01 T10671083  RH  089%=      5-min Rain = 0
KPD2 091313Z 30002KT M07/M08 A3035 RMK A01 T10681083  RH  089%=      5-min Rain = 0
KPD2 091314Z 30002KT M07/M08 A3035 RMK A01 T10681083  RH  089%=      5-min Rain = 0
KPD2 091315Z 30001KT M07/M08 A3035 RMK A01 T10681083  RH  089%=      5-min Rain = 0
KPD2 091316Z 30001KT M07/M08 A3035 RMK A01 T10691083  RH  089%=      5-min Rain = 0
KPD2 091317Z 30001KT M07/M08 A3035 RMK A01 T10681083  RH  089%=      5-min Rain = 0
KPD2 091318Z 30002KT M07/M08 A3036 RMK A01 T10691083  RH  089%=      5-min Rain = 0
KPD2 091319Z 29002KT M07/M08 A3036 RMK A01 T10691084  RH  090%=      5-min Rain = 0
KPD2 091320Z 29001KT M07/M08 A3036 RMK A01 T10691084  RH  090%=      5-min Rain = 0
KPD2 091321Z 29001KT M07/M08 A3036 RMK A01 T10691084  RH  090%=      5-min Rain = 0
KPD2 091322Z 29001KT M07/M08 A3036 RMK A01 T10701083  RH  090%=      5-min Rain = 0
KPD2 091323Z 29001KT M07/M08 A3036 RMK A01 T10701083  RH  090%=      5-min Rain = 0
KPD2 091324Z 29001KT M07/M08 A3036 RMK A01 T10701083  RH  090%=      5-min Rain = 0
KPD2 091325Z 29001KT M07/M08 A3036 RMK A01 T10701083  RH  090%=      5-min Rain = 0
KPD2 091326Z 29001KT M07/M08 A3036 RMK A01 T10701083  RH  091%=      5-min Rain = 0
KPD2 091327Z 29001KT M07/M08 A3036 RMK A01 T10701083  RH  091%=      5-min Rain = 0
KPD2 091328Z 29001KT M07/M08 A3036 RMK A01 T10701083  RH  091%=      5-min Rain = 0
KPD2 091329Z 29001KT M07/M08 A3036 RMK A01 T10701083  RH  091%=      5-min Rain = 0
KPD2 091330Z 29001KT M07/M08 A3036 RMK A01 T10701083  RH  091%=      5-min Rain = 0
KPD2 091331Z 29001KT M07/M08 A3036 RMK A01 T10711084  RH  090%=      5-min Rain = 0
KPD2 091332Z 29001KT M07/M09 A3037 RMK A01 T10721085  RH  090%=      5-min Rain = 0
KPD2 091333Z 29001KT M07/M09 A3037 RMK A01 T10721085  RH  090%=      5-min Rain = 0
KPD2 091334Z 29002KT M07/M09 A3037 RMK A01 T10721085  RH  091%=      5-min Rain = 0
KPD2 091335Z 29002KT M07/M09 A3037 RMK A01 T10721085  RH  091%=      5-min Rain = 0
KPD2 091336Z 29002KT M07/M09 A3037 RMK A01 T10721085  RH  091%=      5-min Rain = 0
KPD2 091337Z 29001KT M07/M09 A3037 RMK A01 T10721085  RH  091%=      5-min Rain = 0
KPD2 091338Z 32001KT M07/M09 A3037 RMK A01 T10731086  RH  091%=      5-min Rain = 0
KPD2 091339Z 30001KT M07/M09 A3037 RMK A01 T10731086  RH  091%=      5-min Rain = 0
KPD2 091340Z 31001KT M07/M09 A3037 RMK A01 T10731085  RH  091%=      5-min Rain = 0
KPD2 091341Z 31001KT M07/M09 A3037 RMK A01 T10721085  RH  091%=      5-min Rain = 0
KPD2 091342Z 28002KT M07/M09 A3037 RMK A01 T10721085  RH  091%=      5-min Rain = 0
KPD2 091343Z 28002KT M07/M09 A3037 RMK A01 T10731085  RH  091%=      5-min Rain = 0
KPD2 091344Z 28002KT M07/M09 A3037 RMK A01 T10731085  RH  091%=      5-min Rain = 0
KPD2 091345Z 28002KT M07/M09 A3037 RMK A01 T10731085  RH  091%=      5-min Rain = 0
KPD2 091346Z 28002KT M07/M09 A3037 RMK A01 T10731085  RH  091%=      5-min Rain = 0
KPD2 091347Z 28002KT M07/M09 A3037 RMK A01 T10731085  RH  091%=      5-min Rain = 0
KPD2 091348Z 28002KT M07/M09 A3037 RMK A01 T10731085  RH  091%=      5-min Rain = 0
KPD2 091349Z 28001KT M07/M08 A3037 RMK A01 T10731084  RH  091%=      5-min Rain = 0
KPD2 091350Z 28001KT M07/M09 A3037 RMK A01 T10731085  RH  091%=      5-min Rain = 0
KPD2 091351Z 28001KT M07/M09 A3037 RMK A01 T10731085  RH  091%=      5-min Rain = 0
KPD2 091352Z 28001KT M07/M08 A3037 RMK A01 T10731084  RH  092%=      5-min Rain = 0
KPD2 091353Z 28001KT M07/M08 A3037 RMK A01 T10731084  RH  092%=      5-min Rain = 0
KPD2 091354Z 28001KT M07/M08 A3037 RMK A01 T10731084  RH  092%=      5-min Rain = 0
KPD2 091355Z 28001KT M07/M08 A3037 RMK A01 T10731084  RH  092%=      5-min Rain = 0
KPD2 091356Z 28001KT M07/M08 A3037 RMK A01 T10721083  RH  092%=      5-min Rain = 0
KPD2 091357Z 28001KT M07/M08 A3037 RMK A01 T10721083  RH  092%=      5-min Rain = 0
KPD2 091358Z 28002KT M07/M08 A3037 RMK A01 T10721083  RH  092%=      5-min Rain = 0
KPD2 091359Z 28002KT M07/M08 A3037 RMK A01 T10721083  RH  092%=      5-min Rain = 0
KPD2 091400Z 28001KT M07/M08 A3037 RMK A01 T10721084  RH  092%=      5-min Rain = 0
KPD2 091401Z 28002KT M07/M08 A3037 RMK A01 T10731084  RH  092%=      5-min Rain = 0
KPD2 091402Z 29002KT M07/M09 A3037 RMK A01 T10731085  RH  092%=      5-min Rain = 0
KPD2 091403Z 29002KT M07/M09 A3037 RMK A01 T10731085  RH  092%=      5-min Rain = 0
KPD2 091404Z 29002KT M07/M08 A3037 RMK A01 T10721084  RH  092%=      5-min Rain = 0
KPD2 091405Z 29002KT M07/M08 A3037 RMK A01 T10721083  RH  092%=      5-min Rain = 0
KPD2 091406Z 29002KT M07/M08 A3037 RMK A01 T10721084  RH  092%=      5-min Rain = 0
KPD2 091407Z 29002KT M07/M08 A3037 RMK A01 T10721083  RH  092%=      5-min Rain = 0
KPD2 091408Z 29003KT M07/M08 A3037 RMK A01 T10721083  RH  092%=      5-min Rain = 0
KPD2 091409Z 30003KT M07/M08 A3037 RMK A01 T10721083  RH  091%=      5-min Rain = 0
KPD2 091410Z 30003KT M07/M08 A3037 RMK A01 T10711083  RH  091%=      5-min Rain = 0
KPD2 091411Z 31003KT M07/M08 A3037 RMK A01 T10711084  RH  091%=      5-min Rain = 0
KPD2 091412Z 31002KT M07/M08 A3037 RMK A01 T10721084  RH  091%=      5-min Rain = 0
KPD2 091413Z 31002KT M07/M09 A3037 RMK A01 T10721085  RH  091%=      5-min Rain = 0
KPD2 091414Z 31002KT M07/M08 A3037 RMK A01 T10721084  RH  091%=      5-min Rain = 0
KPD2 091415Z 30002KT M07/M09 A3037 RMK A01 T10721085  RH  091%=      5-min Rain = 0
KPD2 091416Z 30002KT M07/M09 A3037 RMK A01 T10721085  RH  091%=      5-min Rain = 0
KPD2 091417Z 30002KT M07/M08 A3037 RMK A01 T10721084  RH  091%=      5-min Rain = 0
KPD2 091418Z 29003KT M07/M08 A3037 RMK A01 T10721084  RH  091%=      5-min Rain = 0
KPD2 091419Z 29003KT M07/M08 A3037 RMK A01 T10711083  RH  091%=      5-min Rain = 0
KPD2 091420Z 29003KT M07/M08 A3037 RMK A01 T10711083  RH  091%=      5-min Rain = 0
KPD2 091421Z 29002KT M07/M08 A3037 RMK A01 T10701083  RH  091%=      5-min Rain = 0
KPD2 091422Z 30002KT M07/M08 A3038 RMK A01 T10701083  RH  091%=      5-min Rain = 0
KPD2 091423Z 29002KT M07/M08 A3038 RMK A01 T10701082  RH  091%=      5-min Rain = 0
KPD2 091424Z 29003KT M07/M08 A3038 RMK A01 T10691082  RH  091%=      5-min Rain = 0
KPD2 091425Z 29003KT M07/M08 A3038 RMK A01 T10681081  RH  091%=      5-min Rain = 0
KPD2 091426Z 30004KT M07/M08 A3038 RMK A01 T10671081  RH  091%=      5-min Rain = 0
KPD2 091427Z 30003KT M07/M08 A3038 RMK A01 T10671080  RH  091%=      5-min Rain = 0
KPD2 091428Z 30003KT M07/M08 A3038 RMK A01 T10661079  RH  090%=      5-min Rain = 0
KPD2 091429Z 31003KT M07/M08 A3038 RMK A01 T10651078  RH  090%=      5-min Rain = 0
KPD2 091430Z 31003KT M06/M08 A3038 RMK A01 T10641077  RH  090%=      5-min Rain = 0
KPD2 091431Z 30003KT M06/M08 A3038 RMK A01 T10621076  RH  090%=      5-min Rain = 0
KPD2 091432Z 31003KT M06/M08 A3038 RMK A01 T10611075  RH  090%=      5-min Rain = 0
KPD2 091433Z 31002KT M06/M07 A3038 RMK A01 T10601073  RH  090%=      5-min Rain = 0
KPD2 091434Z 31002KT M06/M07 A3038 RMK A01 T10591073  RH  090%=      5-min Rain = 0
KPD2 091435Z 30003KT M06/M07 A3038 RMK A01 T10571072  RH  090%=      5-min Rain = 0
KPD2 091436Z 29002KT M06/M07 A3038 RMK A01 T10571071  RH  089%=      5-min Rain = 0
KPD2 091437Z 29003KT M05/M07 A3038 RMK A01 T10541070  RH  089%=      5-min Rain = 0
KPD2 091438Z 29003KT M05/M07 A3038 RMK A01 T10541069  RH  089%=      5-min Rain = 0
KPD2 091439Z 29004KT M05/M07 A3038 RMK A01 T10521069  RH  088%=      5-min Rain = 0
KPD2 091440Z 30003KT M05/M07 A3038 RMK A01 T10511069  RH  087%=      5-min Rain = 0
KPD2 091441Z 30002KT M05/M07 A3038 RMK A01 T10511069  RH  087%=      5-min Rain = 0
KPD2 091442Z 30001KT M05/M07 A3038 RMK A01 T10501069  RH  087%=      5-min Rain = 0
KPD2 091443Z 30001KT M05/M07 A3038 RMK A01 T10491068  RH  087%=      5-min Rain = 0
KPD2 091444Z 30002KT M05/M07 A3038 RMK A01 T10491068  RH  086%=      5-min Rain = 0
KPD2 091445Z 29002KT M05/M07 A3038 RMK A01 T10481068  RH  086%=      5-min Rain = 0
KPD2 091446Z 28002KT M05/M07 A3038 RMK A01 T10471067  RH  086%=      5-min Rain = 0
KPD2 091447Z 28002KT M05/M07 A3038 RMK A01 T10461066  RH  086%=      5-min Rain = 0
KPD2 091448Z 30002KT M05/M07 A3038 RMK A01 T10451065  RH  086%=      5-min Rain = 0
KPD2 091449Z 29002KT M04/M07 A3038 RMK A01 T10441065  RH  085%=      5-min Rain = 0
KPD2 091450Z 30002KT M04/M07 A3038 RMK A01 T10431065  RH  085%=      5-min Rain = 0
KPD2 091451Z 30002KT M04/M07 A3038 RMK A01 T10431065  RH  085%=      5-min Rain = 0
KPD2 091452Z 29002KT M04/M06 A3038 RMK A01 T10421064  RH  084%=      5-min Rain = 0
KPD2 091453Z 29002KT M04/M06 A3038 RMK A01 T10411064  RH  084%=      5-min Rain = 0
KPD2 091454Z 29002KT M04/M06 A3038 RMK A01 T10401064  RH  083%=      5-min Rain = 0
KPD2 091455Z 30002KT M04/M07 A3038 RMK A01 T10391065  RH  083%=      5-min Rain = 0
KPD2 091456Z 29002KT M04/M06 A3038 RMK A01 T10381064  RH  082%=      5-min Rain = 0
KPD2 091457Z 29002KT M04/M06 A3038 RMK A01 T10371063  RH  082%=      5-min Rain = 0
KPD2 091458Z 30001KT M04/M06 A3038 RMK A01 T10361062  RH  082%=      5-min Rain = 0
KPD2 091459Z 30001KT M04/M06 A3038 RMK A01 T10361063  RH  082%=      5-min Rain = 0
KPD2 091500Z 31001KT M04/M06 A3038 RMK A01 T10351062  RH  082%=      5-min Rain = 0
KPD2 091501Z 31000KT M04/M06 A3038 RMK A01 T10351061  RH  082%=      5-min Rain = 0
KPD2 091502Z 31000KT M03/M06 A3038 RMK A01 T10341061  RH  082%=      5-min Rain = 0
KPD2 091503Z 31002KT M03/M06 A3038 RMK A01 T10341062  RH  081%=      5-min Rain = 0
KPD2 091504Z 31001KT M03/M06 A3038 RMK A01 T10331062  RH  081%=      5-min Rain = 0
KPD2 091505Z 31002KT M03/M06 A3038 RMK A01 T10331062  RH  080%=      5-min Rain = 0
KPD2 091506Z 31002KT M03/M06 A3038 RMK A01 T10321062  RH  080%=      5-min Rain = 0
KPD2 091507Z 31002KT M03/M06 A3038 RMK A01 T10311061  RH  080%=      5-min Rain = 0
KPD2 091508Z 32002KT M03/M06 A3038 RMK A01 T10301060  RH  080%=      5-min Rain = 0
KPD2 091509Z 32001KT M03/M06 A3038 RMK A01 T10301060  RH  080%=      5-min Rain = 0
KPD2 091510Z 32001KT M03/M06 A3039 RMK A01 T10291061  RH  079%=      5-min Rain = 0
KPD2 091511Z 32002KT M03/M06 A3039 RMK A01 T10281059  RH  079%=      5-min Rain = 0
KPD2 091512Z 32002KT M03/M06 A3039 RMK A01 T10271058  RH  079%=      5-min Rain = 0
KPD2 091513Z 33002KT M03/M06 A3039 RMK A01 T10271060  RH  078%=      5-min Rain = 0
KPD2 091514Z 32001KT M03/M06 A3039 RMK A01 T10271061  RH  077%=      5-min Rain = 0
KPD2 091515Z 33001KT M03/M06 A3039 RMK A01 T10271061  RH  078%=      5-min Rain = 0
KPD2 091516Z 35002KT M03/M06 A3039 RMK A01 T10251058  RH  078%=      5-min Rain = 0
KPD2 091517Z 34002KT M02/M06 A3039 RMK A01 T10241057  RH  078%=      5-min Rain = 0
KPD2 091518Z 35002KT M02/M06 A3039 RMK A01 T10221057  RH  077%=      5-min Rain = 0
KPD2 091519Z 36002KT M02/M06 A3039 RMK A01 T10201055  RH  077%=      5-min Rain = 0
KPD2 091520Z 35003KT M02/M06 A3039 RMK A01 T10191057  RH  076%=      5-min Rain = 0
KPD2 091521Z 33003KT M02/M06 A3039 RMK A01 T10181057  RH  075%=      5-min Rain = 0
KPD2 091522Z 34002KT M02/M06 A3039 RMK A01 T10171057  RH  074%=      5-min Rain = 0
KPD2 091523Z 32003KT M02/M06 A3039 RMK A01 T10161058  RH  073%=      5-min Rain = 0
KPD2 091524Z 32002KT M02/M06 A3039 RMK A01 T10161059  RH  072%=      5-min Rain = 0
KPD2 091525Z 33001KT M01/M06 A3039 RMK A01 T10141057  RH  073%=      5-min Rain = 0
KPD2 091526Z 34002KT M01/M06 A3039 RMK A01 T10141060  RH  071%=      5-min Rain = 0
KPD2 091527Z 32002KT M01/M06 A3039 RMK A01 T10131059  RH  071%=      5-min Rain = 0
KPD2 091528Z 34002KT M01/M06 A3039 RMK A01 T10111057  RH  071%=      5-min Rain = 0
KPD2 091529Z 33003KT M01/M06 A3039 RMK A01 T10101056  RH  071%=      5-min Rain = 0
KPD2 091530Z 30002KT M01/M06 A3039 RMK A01 T10091057  RH  070%=      5-min Rain = 0
KPD2 091531Z 33003KT M01/M06 A3039 RMK A01 T10081057  RH  070%=      5-min Rain = 0
KPD2 091532Z 34003KT M01/M06 A3039 RMK A01 T10081058  RH  069%=      5-min Rain = 0
KPD2 091533Z 33002KT M01/M06 A3039 RMK A01 T10071059  RH  068%=      5-min Rain = 0
KPD2 091534Z 30003KT M01/M06 A3039 RMK A01 T10071058  RH  068%=      5-min Rain = 0
KPD2 091535Z 30003KT M01/M06 A3039 RMK A01 T10061058  RH  068%=      5-min Rain = 0
KPD2 091536Z 30004KT M01/M06 A3039 RMK A01 T10061058  RH  068%=      5-min Rain = 0
KPD2 091537Z 30003KT M01/M06 A3039 RMK A01 T10051056  RH  068%=      5-min Rain = 0
KPD2 091538Z 31002KT M01/M06 A3039 RMK A01 T10051058  RH  067%=      5-min Rain = 0
KPD2 091539Z 32003KT M00/M06 A3039 RMK A01 T10041059  RH  067%=      5-min Rain = 0
KPD2 091540Z 34004KT M00/M06 A3039 RMK A01 T10041059  RH  067%=      5-min Rain = 0
KPD2 091541Z 35003KT M00/M06 A3039 RMK A01 T10041058  RH  067%=      5-min Rain = 0
KPD2 091542Z 35004KT M00/M06 A3039 RMK A01 T10031058  RH  066%=      5-min Rain = 0
KPD2 091543Z 33004KT M00/M06 A3039 RMK A01 T10021057  RH  066%=      5-min Rain = 0
KPD2 091544Z 33004KT 00/06 A3039 RMK A01 T00-00-57  RH  066%=      5-min Rain = 0
KPD2 091545Z 33003KT M00/M06 A3039 RMK A01 T10011060  RH  064%=      5-min Rain = 0
KPD2 091546Z 33003KT 00/06 A3039 RMK A01 T00-00-60  RH  064%=      5-min Rain = 0
KPD2 091547Z 31002KT 00/06 A3039 RMK A01 T00000-56  RH  066%=      5-min Rain = 0
KPD2 091548Z 29003KT 00/M05 A3039 RMK A01 T00021054  RH  066%=      5-min Rain = 0
KPD2 091549Z 29002KT 00/M06 A3039 RMK A01 T00031056  RH  065%=      5-min Rain = 0
KPD2 091550Z 30003KT 00/M06 A3039 RMK A01 T00031056  RH  065%=      5-min Rain = 0
KPD2 091551Z 30004KT 00/M06 A3039 RMK A01 T00041057  RH  064%=      5-min Rain = 0
KPD2 091552Z 30004KT 00/M06 A3039 RMK A01 T00041059  RH  063%=      5-min Rain = 0
KPD2 091553Z 30003KT 00/M06 A3039 RMK A01 T00041059  RH  063%=      5-min Rain = 0
KPD2 091554Z 30004KT 00/M06 A3039 RMK A01 T00041058  RH  063%=      5-min Rain = 0
KPD2 091555Z 31004KT 01/M06 A3039 RMK A01 T00051055  RH  064%=      5-min Rain = 0
KPD2 091556Z 30005KT 01/M05 A3039 RMK A01 T00071054  RH  064%=      5-min Rain = 0
KPD2 091557Z 31005KT 01/M06 A3039 RMK A01 T00071058  RH  062%=      5-min Rain = 0
KPD2 091558Z 31004KT 01/M06 A3039 RMK A01 T00071058  RH  062%=      5-min Rain = 0
KPD2 091559Z 30004KT 01/M06 A304 RMK A01 T00071056  RH  062%=      5-min Rain = 0
KPD2 091600Z 30005KT 01/M06 A304 RMK A01 T00081057  RH  062%=      5-min Rain = 0
KPD2 091601Z 30005KT 01/M06 A304 RMK A01 T00081057  RH  062%=      5-min Rain = 0
KPD2 091602Z 29004KT 01/M06 A304 RMK A01 T00091057  RH  061%=      5-min Rain = 0
KPD2 091603Z 30005KT 01/M06 A304 RMK A01 T00091056  RH  062%=      5-min Rain = 0
KPD2 091604Z 30004KT 01/M06 A304 RMK A01 T00101055  RH  062%=      5-min Rain = 0
KPD2 091605Z 29004KT 01/M05 A304 RMK A01 T00111054  RH  062%=      5-min Rain = 0
KPD2 091606Z 29003KT 01/M06 A304 RMK A01 T00121057  RH  060%=      5-min Rain = 0
KPD2 091607Z 28003KT 01/M06 A304 RMK A01 T00121055  RH  061%=      5-min Rain = 0
KPD2 091608Z 28005KT 01/M06 A304 RMK A01 T00121056  RH  060%=      5-min Rain = 0
KPD2 091609Z 29003KT 01/M06 A304 RMK A01 T00121056  RH  060%=      5-min Rain = 0
KPD2 091610Z 29003KT 01/M05 A304 RMK A01 T00131054  RH  061%=      5-min Rain = 0
KPD2 091611Z 33003KT 01/M06 A304 RMK A01 T00131055  RH  060%=      5-min Rain = 0
KPD2 091612Z 33004KT 02/M05 A304 RMK A01 T00151053  RH  061%=      5-min Rain = 0
KPD2 091613Z 33004KT 02/M05 A304 RMK A01 T00171051  RH  061%=      5-min Rain = 0
KPD2 091614Z 32004KT 02/M05 A304 RMK A01 T00181053  RH  060%=      5-min Rain = 0
KPD2 091615Z 30003KT 02/M05 A304 RMK A01 T00181053  RH  060%=      5-min Rain = 0
KPD2 091616Z 30003KT 02/M05 A304 RMK A01 T00191051  RH  060%=      5-min Rain = 0
KPD2 091617Z 31003KT 02/M05 A304 RMK A01 T00201051  RH  059%=      5-min Rain = 0
KPD2 091618Z 31003KT 02/M05 A304 RMK A01 T00211051  RH  059%=      5-min Rain = 0
KPD2 091619Z 31003KT 02/M05 A304 RMK A01 T00221051  RH  059%=      5-min Rain = 0
KPD2 091620Z 32003KT 02/M05 A304 RMK A01 T00231049  RH  059%=      5-min Rain = 0
KPD2 091621Z 33005KT 02/M05 A304 RMK A01 T00241047  RH  059%=      5-min Rain = 0
KPD2 091622Z 32005KT 03/M05 A304 RMK A01 T00261047  RH  059%=      5-min Rain = 0
KPD2 091623Z 32004KT 03/M05 A304 RMK A01 T00261050  RH  057%=      5-min Rain = 0
KPD2 091624Z 30004KT 03/M05 A304 RMK A01 T00261051  RH  057%=      5-min Rain = 0
KPD2 091625Z 32003KT 03/M05 A304 RMK A01 T00261051  RH  057%=      5-min Rain = 0
KPD2 091626Z 33003KT 03/M05 A304 RMK A01 T00271049  RH  057%=      5-min Rain = 0
KPD2 091627Z 31004KT 03/M05 A304 RMK A01 T00281048  RH  057%=      5-min Rain = 0
KPD2 091628Z 30004KT 03/M05 A304 RMK A01 T00291050  RH  056%=      5-min Rain = 0
KPD2 091629Z 30003KT 03/M05 A304 RMK A01 T00291051  RH  056%=      5-min Rain = 0
KPD2 091630Z 32002KT 03/M05 A304 RMK A01 T00301048  RH  057%=      5-min Rain = 0
KPD2 091631Z 32004KT 03/M05 A304 RMK A01 T00321045  RH  057%=      5-min Rain = 0
KPD2 091632Z 32003KT 03/M05 A304 RMK A01 T00341045  RH  056%=      5-min Rain = 0
KPD2 091633Z 33002KT 03/M05 A304 RMK A01 T00341048  RH  055%=      5-min Rain = 0
KPD2 091634Z 31005KT 04/M05 A304 RMK A01 T00351047  RH  055%=      5-min Rain = 0
KPD2 091635Z 32003KT 04/M05 A304 RMK A01 T00361047  RH  055%=      5-min Rain = 0
KPD2 091636Z 31005KT 04/M04 A304 RMK A01 T00371044  RH  056%=      5-min Rain = 0
KPD2 091637Z 32004KT 04/M04 A304 RMK A01 T00391044  RH  055%=      5-min Rain = 0
KPD2 091638Z 30005KT 04/M05 A304 RMK A01 T00391045  RH  054%=      5-min Rain = 0
KPD2 091639Z 31003KT 04/M04 A3039 RMK A01 T00401043  RH  055%=      5-min Rain = 0
KPD2 091640Z 31004KT 04/M04 A3039 RMK A01 T00411044  RH  054%=      5-min Rain = 0
KPD2 091641Z 30005KT 04/M05 A3039 RMK A01 T00411047  RH  053%=      5-min Rain = 0
KPD2 091642Z 30004KT 04/M05 A3039 RMK A01 T00401048  RH  053%=      5-min Rain = 0
KPD2 091643Z 29003KT 04/M05 A3039 RMK A01 T00391046  RH  054%=      5-min Rain = 0
KPD2 091644Z 29003KT 04/M05 A3039 RMK A01 T00401045  RH  054%=      5-min Rain = 0
KPD2 091645Z 28005KT 04/M05 A3039 RMK A01 T00411045  RH  054%=      5-min Rain = 0
KPD2 091646Z 30003KT 04/M05 A3039 RMK A01 T00401048  RH  053%=      5-min Rain = 0
KPD2 091647Z 28002KT 04/M05 A3039 RMK A01 T00401046  RH  054%=      5-min Rain = 0
KPD2 091648Z 27003KT 04/M05 A3039 RMK A01 T00411046  RH  053%=      5-min Rain = 0
KPD2 091649Z 29005KT 04/M05 A3039 RMK A01 T00421045  RH  053%=      5-min Rain = 0
KPD2 091650Z 27003KT 04/M05 A3039 RMK A01 T00431046  RH  052%=      5-min Rain = 0
KPD2 091651Z 26003KT 04/M05 A3039 RMK A01 T00431047  RH  052%=      5-min Rain = 0
KPD2 091652Z 29002KT 04/M05 A3039 RMK A01 T00431046  RH  052%=      5-min Rain = 0
KPD2 091653Z 27002KT 04/M05 A3039 RMK A01 T00441045  RH  052%=      5-min Rain = 0
KPD2 091654Z 27005KT 05/M04 A3039 RMK A01 T00461042  RH  053%=      5-min Rain = 0
KPD2 091655Z 29004KT 05/M04 A3039 RMK A01 T00471044  RH  052%=      5-min Rain = 0
KPD2 091656Z 28003KT 05/M04 A3039 RMK A01 T00481042  RH  052%=      5-min Rain = 0
KPD2 091657Z 30004KT 05/M04 A3039 RMK A01 T00501039  RH  052%=      5-min Rain = 0
KPD2 091658Z 30003KT 05/M04 A3039 RMK A01 T00531039  RH  052%=      5-min Rain = 0
KPD2 091659Z 28003KT 06/M04 A3039 RMK A01 T00551039  RH  051%=      5-min Rain = 0
KPD2 091700Z 27005KT 06/M04 A3039 RMK A01 T00551043  RH  050%=      5-min Rain = 0
KPD2 091701Z 25003KT 05/M05 A3039 RMK A01 T00521046  RH  049%=      5-min Rain = 0
KPD2 091702Z 26005KT 05/M04 A3039 RMK A01 T00521043  RH  050%=      5-min Rain = 0
KPD2 091703Z 25003KT 05/M05 A3039 RMK A01 T00521045  RH  049%=      5-min Rain = 0
KPD2 091704Z 24003KT 05/M05 A3039 RMK A01 T00511045  RH  050%=      5-min Rain = 0
KPD2 091705Z 27004KT 05/M04 A3039 RMK A01 T00531041  RH  051%=      5-min Rain = 0
KPD2 091706Z 29004KT 05/M04 A3039 RMK A01 T00541043  RH  050%=      5-min Rain = 0
KPD2 091707Z 28002KT 06/M04 A3039 RMK A01 T00551041  RH  050%=      5-min Rain = 0
KPD2 091708Z 26004KT 06/M04 A3039 RMK A01 T00561040  RH  050%=      5-min Rain = 0
KPD2 091709Z 25003KT 06/M04 A3039 RMK A01 T00571041  RH  049%=      5-min Rain = 0
KPD2 091710Z 25005KT 06/M04 A3039 RMK A01 T00591038  RH  050%=      5-min Rain = 0
KPD2 091711Z 27004KT 06/M04 A3039 RMK A01 T00601040  RH  049%=      5-min Rain = 0
KPD2 091712Z 26006KT 06/M04 A3039 RMK A01 T00591041  RH  048%=      5-min Rain = 0
KPD2 091713Z 26003KT 06/M04 A3039 RMK A01 T00581041  RH  049%=      5-min Rain = 0
KPD2 091714Z 23002KT 06/M04 A3039 RMK A01 T00591040  RH  049%=      5-min Rain = 0
KPD2 091715Z 25002KT 06/M04 A3039 RMK A01 T00601040  RH  049%=      5-min Rain = 0
KPD2 091716Z 21003KT 06/M04 A3038 RMK A01 T00611039  RH  049%=      5-min Rain = 0
KPD2 091717Z 20003KT 06/M04 A3038 RMK A01 T00631038  RH  049%=      5-min Rain = 0
KPD2 091718Z 24003KT 06/M04 A3038 RMK A01 T00641039  RH  048%=      5-min Rain = 0
KPD2 091719Z 25004KT 06/M04 A3038 RMK A01 T00641037  RH  048%=      5-min Rain = 0
KPD2 091720Z 24003KT 07/M04 A3038 RMK A01 T00651038  RH  048%=      5-min Rain = 0
KPD2 091721Z 24004KT 07/M04 A3038 RMK A01 T00661037  RH  048%=      5-min Rain = 0
KPD2 091722Z 21003KT 07/M04 A3038 RMK A01 T00661039  RH  047%=      5-min Rain = 0
KPD2 091723Z 19003KT 07/M04 A3038 RMK A01 T00651041  RH  047%=      5-min Rain = 0
KPD2 091724Z 20003KT 06/M04 A3038 RMK A01 T00641040  RH  047%=      5-min Rain = 0
KPD2 091725Z 21003KT 06/M04 A3038 RMK A01 T00641041  RH  047%=      5-min Rain = 0
KPD2 091726Z 20002KT 06/M04 A3038 RMK A01 T00641038  RH  048%=      5-min Rain = 0
KPD2 091727Z 27004KT 07/M04 A3038 RMK A01 T00671036  RH  048%=      5-min Rain = 0
KPD2 091728Z 28003KT 07/M04 A3038 RMK A01 T00681037  RH  047%=      5-min Rain = 0
KPD2 091729Z 28004KT 07/M04 A3038 RMK A01 T00681038  RH  047%=      5-min Rain = 0
KPD2 091730Z 32003KT 07/M04 A3038 RMK A01 T00691036  RH  047%=      5-min Rain = 0
KPD2 091731Z 29002KT 07/M04 A3038 RMK A01 T00701038  RH  046%=      5-min Rain = 0
KPD2 091732Z 31002KT 07/M04 A3038 RMK A01 T00701038  RH  046%=      5-min Rain = 0
KPD2 091733Z 32003KT 07/M04 A3038 RMK A01 T00701037  RH  046%=      5-min Rain = 0
KPD2 091734Z 33003KT 07/M04 A3037 RMK A01 T00721038  RH  046%=      5-min Rain = 0
KPD2 091735Z 22001KT 07/M04 A3037 RMK A01 T00711037  RH  046%=      5-min Rain = 0
KPD2 091736Z 25003KT 07/M04 A3037 RMK A01 T00731035  RH  046%=      5-min Rain = 0
KPD2 091737Z 22002KT 07/M04 A3037 RMK A01 T00741038  RH  045%=      5-min Rain = 0
KPD2 091738Z 26003KT 07/M04 A3037 RMK A01 T00741037  RH  045%=      5-min Rain = 0
KPD2 091739Z 25002KT 08/M04 A3037 RMK A01 T00761035  RH  045%=      5-min Rain = 0
KPD2 091740Z 27002KT 08/M03 A3037 RMK A01 T00791033  RH  045%=      5-min Rain = 0
KPD2 091741Z 33004KT 08/M03 A3037 RMK A01 T00821032  RH  044%=      5-min Rain = 0
KPD2 091742Z 35007KT 09/M04 A3037 RMK A01 T00851035  RH  043%=      5-min Rain = 0
KPD2 091743Z 00006KT 08/M04 A3037 RMK A01 T00841039  RH  042%=      5-min Rain = 0
KPD2 091744Z 36004KT 08/M04 A3037 RMK A01 T00831039  RH  042%=      5-min Rain = 0
KPD2 091745Z 02001KT 08/M04 A3037 RMK A01 T00831040  RH  042%=      5-min Rain = 0
KPD2 091746Z 15001KT 08/M04 A3037 RMK A01 T00831040  RH  041%=      5-min Rain = 0
KPD2 091747Z 16003KT 09/M04 A3037 RMK A01 T00851035  RH  043%=      5-min Rain = 0
KPD2 091748Z 11001KT 09/M04 A3037 RMK A01 T00861035  RH  042%=      5-min Rain = 0
KPD2 091749Z 36002KT 09/M04 A3037 RMK A01 T00851035  RH  043%=      5-min Rain = 0
KPD2 091750Z 33005KT 09/M04 A3037 RMK A01 T00851038  RH  041%=      5-min Rain = 0
KPD2 091751Z 33007KT 08/M05 A3037 RMK A01 T00841045  RH  040%=      5-min Rain = 0
KPD2 091752Z 31004KT 08/M05 A3037 RMK A01 T00841049  RH  039%=      5-min Rain = 0
KPD2 091753Z 33004KT 08/M05 A3037 RMK A01 T00821047  RH  040%=      5-min Rain = 0
KPD2 091754Z 34003KT 09/M04 A3037 RMK A01 T00861040  RH  041%=      5-min Rain = 0
KPD2 091755Z 34004KT 09/M04 A3037 RMK A01 T00871043  RH  039%=      5-min Rain = 0
KPD2 091756Z 34004KT 09/M05 A3037 RMK A01 T00871046  RH  039%=      5-min Rain = 0
KPD2 091757Z 32003KT 09/M05 A3037 RMK A01 T00861048  RH  038%=      5-min Rain = 0
KPD2 091758Z 35004KT 09/M05 A3037 RMK A01 T00851047  RH  039%=      5-min Rain = 0
KPD2 091759Z 02003KT 09/M04 A3037 RMK A01 T00871043  RH  040%=      5-min Rain = 0
KPD2 091800Z 03002KT 09/M05 A3036 RMK A01 T00881045  RH  039%=      5-min Rain = 0
KPD2 091801Z 02002KT 09/M05 A3036 RMK A01 T00881046  RH  038%=      5-min Rain = 0
KPD2 091802Z 01006KT 09/M04 A3036 RMK A01 T00891043  RH  039%=      5-min Rain = 0
KPD2 091803Z 04004KT 09/M04 A3036 RMK A01 T00911041  RH  039%=      5-min Rain = 0
KPD2 091804Z 06002KT 09/M05 A3036 RMK A01 T00911047  RH  037%=      5-min Rain = 0
KPD2 091805Z 08001KT 09/M05 A3036 RMK A01 T00871048  RH  038%=      5-min Rain = 0
KPD2 091806Z 34001KT 09/M05 A3036 RMK A01 T00861045  RH  039%=      5-min Rain = 0
KPD2 091807Z 02002KT 09/M04 A3036 RMK A01 T00871043  RH  040%=      5-min Rain = 0
KPD2 091808Z 32002KT 09/M04 A3036 RMK A01 T00891042  RH  040%=      5-min Rain = 0
KPD2 091809Z 32005KT 09/M04 A3036 RMK A01 T00901042  RH  039%=      5-min Rain = 0
KPD2 091810Z 32008KT 09/M04 A3036 RMK A01 T00921039  RH  040%=      5-min Rain = 0
KPD2 091811Z 34005KT 09/M04 A3036 RMK A01 T00921044  RH  038%=      5-min Rain = 0
KPD2 091812Z 34004KT 09/M04 A3036 RMK A01 T00901044  RH  038%=      5-min Rain = 0
KPD2 091813Z 34004KT 09/M04 A3036 RMK A01 T00911043  RH  039%=      5-min Rain = 0
KPD2 091814Z 36003KT 09/M04 A3036 RMK A01 T00931041  RH  039%=      5-min Rain = 0
KPD2 091815Z 34003KT 10/M04 A3036 RMK A01 T00951043  RH  037%=      5-min Rain = 0
KPD2 091816Z 31005KT 09/M05 A3036 RMK A01 T00941046  RH  037%=      5-min Rain = 0
KPD2 091817Z 34006KT 09/M05 A3036 RMK A01 T00931045  RH  038%=      5-min Rain = 0
KPD2 091818Z 01005KT 09/M04 A3036 RMK A01 T00931043  RH  038%=      5-min Rain = 0
KPD2 091819Z 03007KT 10/M04 A3036 RMK A01 T00951041  RH  038%=      5-min Rain = 0
KPD2 091820Z 04005KT 10/M05 A3036 RMK A01 T00951048  RH  036%=      5-min Rain = 0
KPD2 091821Z 03005KT 09/M05 A3036 RMK A01 T00931052  RH  036%=      5-min Rain = 0
KPD2 091822Z 02002KT 09/M05 A3035 RMK A01 T00911053  RH  036%=      5-min Rain = 0
KPD2 091823Z 30001KT 09/M05 A3035 RMK A01 T00911054  RH  036%=      5-min Rain = 0
KPD2 091824Z 02002KT 09/M05 A3035 RMK A01 T00911053  RH  036%=      5-min Rain = 0
KPD2 091825Z 07003KT 09/M05 A3035 RMK A01 T00921052  RH  036%=      5-min Rain = 0
KPD2 091826Z 02003KT 09/M05 A3035 RMK A01 T00931052  RH  035%=      5-min Rain = 0
KPD2 091827Z 01002KT 09/M05 A3035 RMK A01 T00931053  RH  035%=      5-min Rain = 0
KPD2 091828Z 03003KT 09/M05 A3035 RMK A01 T00921054  RH  035%=      5-min Rain = 0
KPD2 091829Z 00003KT 09/M05 A3035 RMK A01 T00931051  RH  036%=      5-min Rain = 0
KPD2 091830Z 36004KT 09/M05 A3035 RMK A01 T00931053  RH  035%=      5-min Rain = 0
KPD2 091831Z 02006KT 09/M05 A3035 RMK A01 T00931051  RH  036%=      5-min Rain = 0
KPD2 091832Z 02006KT 09/M05 A3035 RMK A01 T00931050  RH  036%=      5-min Rain = 0
KPD2 091833Z 03005KT 09/M05 A3035 RMK A01 T00931052  RH  036%=      5-min Rain = 0
KPD2 091834Z 04003KT 09/M05 A3035 RMK A01 T00921049  RH  037%=      5-min Rain = 0
KPD2 091835Z 36005KT 09/M05 A3035 RMK A01 T00941047  RH  037%=      5-min Rain = 0
KPD2 091836Z 03004KT 10/M05 A3035 RMK A01 T00971045  RH  036%=      5-min Rain = 0
KPD2 091837Z 06003KT 10/M05 A3035 RMK A01 T00981046  RH  036%=      5-min Rain = 0
KPD2 091838Z 12003KT 10/M05 A3035 RMK A01 T00991048  RH  035%=      5-min Rain = 0
KPD2 091839Z 14003KT 10/M05 A3035 RMK A01 T00981049  RH  035%=      5-min Rain = 0
KPD2 091840Z 11002KT 10/M05 A3035 RMK A01 T00981046  RH  036%=      5-min Rain = 0
KPD2 091841Z 07004KT 10/M05 A3035 RMK A01 T00981045  RH  036%=      5-min Rain = 0
KPD2 091842Z 02004KT 10/M04 A3035 RMK A01 T01001044  RH  036%=      5-min Rain = 0
KPD2 091843Z 34006KT 10/M05 A3035 RMK A01 T01011045  RH  036%=      5-min Rain = 0
KPD2 091844Z 00006KT 10/M05 A3035 RMK A01 T01001046  RH  036%=      5-min Rain = 0
KPD2 091845Z 36004KT 10/M04 A3034 RMK A01 T00991043  RH  036%=      5-min Rain = 0
KPD2 091846Z 33003KT 10/M05 A3034 RMK A01 T01001046  RH  035%=      5-min Rain = 0
KPD2 091847Z 33002KT 10/M05 A3034 RMK A01 T00961050  RH  035%=      5-min Rain = 0
KPD2 091848Z 01004KT 10/M05 A3034 RMK A01 T00951047  RH  036%=      5-min Rain = 0
KPD2 091849Z 36006KT 10/M05 A3034 RMK A01 T00961046  RH  036%=      5-min Rain = 0
KPD2 091850Z 02005KT 10/M04 A3034 RMK A01 T01001041  RH  037%=      5-min Rain = 0
KPD2 091851Z 03007KT 10/M05 A3034 RMK A01 T01011046  RH  035%=      5-min Rain = 0
KPD2 091852Z 01003KT 10/M05 A3034 RMK A01 T01001049  RH  035%=      5-min Rain = 0
KPD2 091853Z 01003KT 10/M05 A3034 RMK A01 T00991048  RH  035%=      5-min Rain = 0
KPD2 091854Z 01006KT 10/M05 A3034 RMK A01 T01011045  RH  035%=      5-min Rain = 0
KPD2 091855Z 01006KT 10/M05 A3034 RMK A01 T01031047  RH  034%=      5-min Rain = 0
KPD2 091856Z 35005KT 10/M05 A3034 RMK A01 T01041049  RH  034%=      5-min Rain = 0
KPD2 091857Z 35006KT 10/M05 A3034 RMK A01 T01041051  RH  033%=      5-min Rain = 0
KPD2 091858Z 36008KT 10/M05 A3034 RMK A01 T01041048  RH  034%=      5-min Rain = 0
KPD2 091859Z 00008KT 11/M05 A3034 RMK A01 T01061050  RH  033%=      5-min Rain = 0
KPD2 091900Z 01004KT 10/M06 A3034 RMK A01 T01041055  RH  032%=      5-min Rain = 0
KPD2 091901Z 02005KT 10/M05 A3034 RMK A01 T01041054  RH  033%=      5-min Rain = 0
KPD2 091902Z 01003KT 10/M06 A3034 RMK A01 T01021055  RH  033%=      5-min Rain = 0
KPD2 091903Z 07004KT 10/M05 A3034 RMK A01 T01001054  RH  033%=      5-min Rain = 0
KPD2 091904Z 11002KT 10/M06 A3034 RMK A01 T00981056  RH  033%=      5-min Rain = 0
KPD2 091905Z 10004KT 10/M06 A3033 RMK A01 T00971056  RH  034%=      5-min Rain = 0
KPD2 091906Z 09003KT 10/M05 A3033 RMK A01 T00961054  RH  034%=      5-min Rain = 0
KPD2 091907Z 11003KT 10/M05 A3033 RMK A01 T00961054  RH  034%=      5-min Rain = 0
KPD2 091908Z 32003KT 10/M05 A3033 RMK A01 T00961053  RH  034%=      5-min Rain = 0
KPD2 091909Z 34001KT 10/M05 A3033 RMK A01 T00971053  RH  034%=      5-min Rain = 0
KPD2 091910Z 10001KT 10/M05 A3033 RMK A01 T00991052  RH  034%=      5-min Rain = 0
KPD2 091911Z 10004KT 10/M05 A3033 RMK A01 T01021047  RH  035%=      5-min Rain = 0
KPD2 091912Z 03003KT 10/M05 A3033 RMK A01 T01041048  RH  034%=      5-min Rain = 0
KPD2 091913Z 02004KT 10/M05 A3033 RMK A01 T01021052  RH  034%=      5-min Rain = 0
KPD2 091914Z 33003KT 10/M05 A3033 RMK A01 T01011051  RH  034%=      5-min Rain = 0
KPD2 091915Z 30001KT 10/M05 A3033 RMK A01 T01011054  RH  033%=      5-min Rain = 0
KPD2 091916Z 35003KT 10/M06 A3033 RMK A01 T01001057  RH  033%=      5-min Rain = 0
KPD2 091917Z 36005KT 10/M05 A3033 RMK A01 T01001048  RH  035%=      5-min Rain = 0
KPD2 091918Z 34004KT 10/M05 A3033 RMK A01 T01031046  RH  035%=      5-min Rain = 0
KPD2 091919Z 34005KT 10/M05 A3033 RMK A01 T01041049  RH  034%=      5-min Rain = 0
KPD2 091920Z 33003KT 10/M05 A3033 RMK A01 T01031052  RH  033%=      5-min Rain = 0
KPD2 091921Z 28003KT 10/M06 A3033 RMK A01 T00991057  RH  033%=      5-min Rain = 0
KPD2 091922Z 30003KT 10/M06 A3033 RMK A01 T00971056  RH  034%=      5-min Rain = 0
KPD2 091923Z 35002KT 10/M05 A3033 RMK A01 T01001051  RH  034%=      5-min Rain = 0
KPD2 091924Z 31001KT 10/M05 A3033 RMK A01 T01031048  RH  034%=      5-min Rain = 0
KPD2 091925Z 28003KT 10/M05 A3033 RMK A01 T01031050  RH  034%=      5-min Rain = 0
KPD2 091926Z 27005KT 10/M05 A3033 RMK A01 T01031050  RH  034%=      5-min Rain = 0
KPD2 091927Z 30007G12KT 10/M05 A3033 RMK A01 T01011049  RH  035%=      5-min Rain = 0
KPD2 091928Z 31006KT 10/M05 A3033 RMK A01 T01011047  RH  035%=      5-min Rain = 0
KPD2 091929Z 29004KT 10/M05 A3033 RMK A01 T00991048  RH  035%=      5-min Rain = 0
KPD2 091930Z 30006KT 10/M05 A3033 RMK A01 T01001045  RH  036%=      5-min Rain = 0
KPD2 091931Z 32007KT 10/M05 A3033 RMK A01 T01011045  RH  035%=      5-min Rain = 0
KPD2 091932Z 34006KT 10/M04 A3033 RMK A01 T01021042  RH  036%=      5-min Rain = 0
KPD2 091933Z 00006KT 11/M04 A3033 RMK A01 T01051039  RH  036%=      5-min Rain = 0
KPD2 091934Z 03005KT 11/M04 A3033 RMK A01 T01071042  RH  035%=      5-min Rain = 0
KPD2 091935Z 33005KT 11/M04 A3033 RMK A01 T01071042  RH  035%=      5-min Rain = 0
KPD2 091936Z 31005KT 11/M04 A3033 RMK A01 T01071043  RH  035%=      5-min Rain = 0
KPD2 091937Z 32004KT 11/M04 A3032 RMK A01 T01081042  RH  035%=      5-min Rain = 0
KPD2 091938Z 30006KT 11/M04 A3032 RMK A01 T01091042  RH  034%=      5-min Rain = 0
KPD2 091939Z 30005KT 11/M05 A3032 RMK A01 T01081045  RH  034%=      5-min Rain = 0
KPD2 091940Z 30003KT 10/M05 A3032 RMK A01 T01041049  RH  034%=      5-min Rain = 0
KPD2 091941Z 30003KT 10/M05 A3032 RMK A01 T01011049  RH  034%=      5-min Rain = 0
KPD2 091942Z 28002KT 10/M05 A3032 RMK A01 T01021045  RH  035%=      5-min Rain = 0
KPD2 091943Z 29002KT 10/M05 A3032 RMK A01 T01041045  RH  035%=      5-min Rain = 0
KPD2 091944Z 01002KT 11/M05 A3032 RMK A01 T01061045  RH  034%=      5-min Rain = 0
KPD2 091945Z 25003KT 11/M04 A3032 RMK A01 T01061044  RH  034%=      5-min Rain = 0
KPD2 091946Z 23003KT 11/M05 A3032 RMK A01 T01061047  RH  034%=      5-min Rain = 0
KPD2 091947Z 23003KT 10/M05 A3032 RMK A01 T01041048  RH  034%=      5-min Rain = 0
KPD2 091948Z 20001KT 11/M05 A3032 RMK A01 T01051046  RH  034%=      5-min Rain = 0
KPD2 091949Z 14001KT 11/M05 A3032 RMK A01 T01061048  RH  033%=      5-min Rain = 0
KPD2 091950Z 11003KT 11/M05 A3032 RMK A01 T01081047  RH  033%=      5-min Rain = 0
KPD2 091951Z 08002KT 11/M05 A3032 RMK A01 T01091046  RH  033%=      5-min Rain = 0
KPD2 091952Z 34004KT 11/M05 A3032 RMK A01 T01101046  RH  033%=      5-min Rain = 0
KPD2 091953Z 36005KT 11/M05 A3032 RMK A01 T01111048  RH  032%=      5-min Rain = 0
KPD2 091954Z 03004KT 11/M05 A3032 RMK A01 T01121048  RH  032%=      5-min Rain = 0
KPD2 091955Z 03004KT 11/M05 A3032 RMK A01 T01121050  RH  032%=      5-min Rain = 0
KPD2 091956Z 01005KT 11/M05 A3032 RMK A01 T01101053  RH  031%=      5-min Rain = 0
KPD2 091957Z 04005KT 11/M06 A3032 RMK A01 T01091055  RH  031%=      5-min Rain = 0
KPD2 091958Z 08004KT 11/M06 A3032 RMK A01 T01071057  RH  031%=      5-min Rain = 0
KPD2 091959Z 03005KT 11/M06 A3032 RMK A01 T01061055  RH  032%=      5-min Rain = 0
KPD2 092000Z 01007KT 11/M05 A3032 RMK A01 T01071053  RH  032%=      5-min Rain = 0
KPD2 092001Z 02006KT 11/M05 A3032 RMK A01 T01091051  RH  032%=      5-min Rain = 0
KPD2 092002Z 01005KT 11/M05 A3032 RMK A01 T01121050  RH  032%=      5-min Rain = 0
KPD2 092003Z 00004KT 11/M05 A3032 RMK A01 T01141050  RH  031%=      5-min Rain = 0
KPD2 092004Z 03004KT 12/M05 A3032 RMK A01 T01151051  RH  031%=      5-min Rain = 0
KPD2 092005Z 04003KT 11/M05 A3032 RMK A01 T01141054  RH  030%=      5-min Rain = 0
KPD2 092006Z 34002KT 11/M05 A3032 RMK A01 T01121052  RH  031%=      5-min Rain = 0
KPD2 092007Z 33006KT 11/M05 A3032 RMK A01 T01121050  RH  032%=      5-min Rain = 0
KPD2 092008Z 34005KT 11/M05 A3032 RMK A01 T01131050  RH  032%=      5-min Rain = 0
KPD2 092009Z 34004KT 11/M05 A3032 RMK A01 T01111051  RH  032%=      5-min Rain = 0
KPD2 092010Z 32003KT 11/M05 A3032 RMK A01 T01111050  RH  032%=      5-min Rain = 0
KPD2 092011Z 25002KT 11/M05 A3032 RMK A01 T01101053  RH  032%=      5-min Rain = 0
KPD2 092012Z 26003KT 11/M05 A3032 RMK A01 T01101051  RH  032%=      5-min Rain = 0
KPD2 092013Z 35002KT 11/M05 A3032 RMK A01 T01101050  RH  032%=      5-min Rain = 0
KPD2 092014Z 02004KT 11/M05 A3032 RMK A01 T01111050  RH  032%=      5-min Rain = 0
KPD2 092015Z 00002KT 11/M05 A3032 RMK A01 T01111048  RH  032%=      5-min Rain = 0
KPD2 092016Z 09000KT 11/M05 A3032 RMK A01 T01121048  RH  032%=      5-min Rain = 0
KPD2 092017Z 09002KT 11/M05 A3031 RMK A01 T01131051  RH  031%=      5-min Rain = 0
KPD2 092018Z 01003KT 11/M05 A3031 RMK A01 T01111052  RH  031%=      5-min Rain = 0
KPD2 092019Z 01001KT 11/M05 A3031 RMK A01 T01101051  RH  032%=      5-min Rain = 0
KPD2 092020Z 12003KT 11/M05 A3031 RMK A01 T01121048  RH  032%=      5-min Rain = 0
KPD2 092021Z 11004KT 11/M05 A3031 RMK A01 T01131049  RH  032%=      5-min Rain = 0
KPD2 092022Z 09005KT 11/M05 A3031 RMK A01 T01131048  RH  032%=      5-min Rain = 0
KPD2 092023Z 09002KT 11/M05 A3031 RMK A01 T01111048  RH  032%=      5-min Rain = 0
KPD2 092024Z 01004KT 11/M05 A3031 RMK A01 T01111045  RH  033%=      5-min Rain = 0
KPD2 092025Z 02003KT 11/M05 A3031 RMK A01 T01141047  RH  032%=      5-min Rain = 0
KPD2 092026Z 35002KT 12/M05 A3031 RMK A01 T01151049  RH  031%=      5-min Rain = 0
KPD2 092027Z 29002KT 12/M05 A3031 RMK A01 T01151051  RH  031%=      5-min Rain = 0
KPD2 092028Z 31002KT 12/M05 A3031 RMK A01 T01151050  RH  031%=      5-min Rain = 0
KPD2 092029Z 35003KT 12/M05 A3031 RMK A01 T01151051  RH  031%=      5-min Rain = 0
KPD2 092030Z 03006KT 12/M05 A3031 RMK A01 T01161048  RH  031%=      5-min Rain = 0
KPD2 092031Z 02006KT 12/M05 A3031 RMK A01 T01151053  RH  031%=      5-min Rain = 0
KPD2 092032Z 34005KT 11/M05 A3031 RMK A01 T01131053  RH  031%=      5-min Rain = 0
KPD2 092033Z 36005KT 11/M05 A3031 RMK A01 T01121054  RH  031%=      5-min Rain = 0
KPD2 092034Z 02003KT 11/M05 A3031 RMK A01 T01131053  RH  031%=      5-min Rain = 0
KPD2 092035Z 01002KT 11/M05 A3031 RMK A01 T01141054  RH  030%=      5-min Rain = 0
KPD2 092036Z 35004KT 12/M05 A3031 RMK A01 T01161050  RH  031%=      5-min Rain = 0
KPD2 092037Z 32003KT 12/M05 A3031 RMK A01 T01201049  RH  030%=      5-min Rain = 0
KPD2 092038Z 32002KT 12/M05 A3031 RMK A01 T01221049  RH  030%=      5-min Rain = 0
KPD2 092039Z 33001KT 12/M05 A3031 RMK A01 T01231049  RH  030%=      5-min Rain = 0
KPD2 092040Z 30001KT 12/M05 A3031 RMK A01 T01241050  RH  029%=      5-min Rain = 0
KPD2 092041Z 28002KT 12/M06 A3031 RMK A01 T01211056  RH  029%=      5-min Rain = 0
KPD2 092042Z 28002KT 12/M06 A3031 RMK A01 T01181056  RH  029%=      5-min Rain = 0
KPD2 092043Z 27002KT 12/M06 A3031 RMK A01 T01151058  RH  029%=      5-min Rain = 0
KPD2 092044Z 27001KT 11/M06 A3031 RMK A01 T01141058  RH  029%=      5-min Rain = 0
KPD2 092045Z 34002KT 11/M06 A3031 RMK A01 T01131056  RH  030%=      5-min Rain = 0
KPD2 092046Z 02004KT 11/M05 A3031 RMK A01 T01141053  RH  030%=      5-min Rain = 0
KPD2 092047Z 02005KT 12/M05 A3031 RMK A01 T01171050  RH  031%=      5-min Rain = 0
KPD2 092048Z 01004KT 12/M05 A3031 RMK A01 T01181051  RH  030%=      5-min Rain = 0
KPD2 092049Z 04003KT 12/M05 A3031 RMK A01 T01181050  RH  030%=      5-min Rain = 0
KPD2 092050Z 06004KT 12/M05 A3031 RMK A01 T01171054  RH  030%=      5-min Rain = 0
KPD2 092051Z 32005KT 12/M05 A3031 RMK A01 T01151052  RH  031%=      5-min Rain = 0
KPD2 092052Z 32006KT 12/M05 A3031 RMK A01 T01161051  RH  031%=      5-min Rain = 0
KPD2 092053Z 32005KT 12/M06 A3031 RMK A01 T01151055  RH  030%=      5-min Rain = 0
KPD2 092054Z 32004KT 11/M05 A3031 RMK A01 T01131054  RH  031%=      5-min Rain = 0
KPD2 092055Z 30005KT 11/M05 A3031 RMK A01 T01131054  RH  031%=      5-min Rain = 0
KPD2 092056Z 28003KT 11/M06 A3031 RMK A01 T01111057  RH  030%=      5-min Rain = 0
KPD2 092057Z 29003KT 11/M05 A3031 RMK A01 T01101054  RH  031%=      5-min Rain = 0
KPD2 092058Z 30003KT 11/M05 A3031 RMK A01 T01111052  RH  031%=      5-min Rain = 0
KPD2 092059Z 31001KT 11/M05 A3031 RMK A01 T01121052  RH  031%=      5-min Rain = 0
KPD2 092100Z 01000KT 12/M05 A3031 RMK A01 T01151051  RH  031%=      5-min Rain = 0
KPD2 092101Z 22001KT 12/M05 A3031 RMK A01 T01161053  RH  030%=      5-min Rain = 0
KPD2 092102Z 30002KT 12/M06 A3031 RMK A01 T01161055  RH  030%=      5-min Rain = 0
KPD2 092103Z 31006KT 12/M06 A3031 RMK A01 T01161057  RH  029%=      5-min Rain = 0
KPD2 092104Z 33006KT 12/M06 A3031 RMK A01 T01161056  RH  029%=      5-min Rain = 0
KPD2 092105Z 33006KT 12/M06 A3031 RMK A01 T01161055  RH  030%=      5-min Rain = 0
KPD2 092106Z 33005KT 12/M06 A3031 RMK A01 T01161058  RH  029%=      5-min Rain = 0
KPD2 092107Z 31006KT 12/M06 A3031 RMK A01 T01151057  RH  029%=      5-min Rain = 0
KPD2 092108Z 31005KT 12/M06 A3031 RMK A01 T01161057  RH  029%=      5-min Rain = 0
KPD2 092109Z 29007KT 12/M06 A3031 RMK A01 T01151058  RH  029%=      5-min Rain = 0
KPD2 092110Z 31006KT 12/M06 A3031 RMK A01 T01161057  RH  029%=      5-min Rain = 0
KPD2 092111Z 31006KT 12/M06 A3031 RMK A01 T01161056  RH  030%=      5-min Rain = 0
KPD2 092112Z 32007KT 12/M05 A3031 RMK A01 T01171054  RH  030%=      5-min Rain = 0
KPD2 092113Z 32006KT 12/M05 A3031 RMK A01 T01191054  RH  030%=      5-min Rain = 0
KPD2 092114Z 33006KT 12/M06 A3031 RMK A01 T01171057  RH  029%=      5-min Rain = 0
KPD2 092115Z 34008KT 12/M06 A3031 RMK A01 T01171055  RH  030%=      5-min Rain = 0
KPD2 092116Z 35005KT 12/M06 A3031 RMK A01 T01181055  RH  029%=      5-min Rain = 0
KPD2 092117Z 34003KT 12/M06 A3031 RMK A01 T01171059  RH  029%=      5-min Rain = 0
KPD2 092118Z 32002KT 12/M06 A3031 RMK A01 T01161060  RH  029%=      5-min Rain = 0
KPD2 092119Z 28003KT 12/M06 A3031 RMK A01 T01151058  RH  029%=      5-min Rain = 0
KPD2 092120Z 33004KT 12/M06 A3031 RMK A01 T01161058  RH  029%=      5-min Rain = 0
KPD2 092121Z 35002KT 12/M06 A3031 RMK A01 T01161057  RH  029%=      5-min Rain = 0
KPD2 092122Z 04001KT 12/M06 A3031 RMK A01 T01161058  RH  029%=      5-min Rain = 0
KPD2 092123Z 35002KT 12/M06 A3031 RMK A01 T01151056  RH  030%=      5-min Rain = 0
KPD2 092124Z 32003KT 12/M06 A3031 RMK A01 T01151056  RH  030%=      5-min Rain = 0
KPD2 092125Z 31001KT 12/M06 A3031 RMK A01 T01151059  RH  029%=      5-min Rain = 0
KPD2 092126Z 34003KT 11/M06 A3031 RMK A01 T01141059  RH  029%=      5-min Rain = 0
KPD2 092127Z 02005KT 11/M06 A3031 RMK A01 T01141057  RH  030%=      5-min Rain = 0
KPD2 092128Z 04007KT 12/M06 A3031 RMK A01 T01161057  RH  029%=      5-min Rain = 0
KPD2 092129Z 04005KT 12/M06 A3031 RMK A01 T01171059  RH  029%=      5-min Rain = 0
KPD2 092130Z 04003KT 12/M06 A3031 RMK A01 T01161062  RH  028%=      5-min Rain = 0
KPD2 092131Z 05001KT 12/M06 A3031 RMK A01 T01151061  RH  029%=      5-min Rain = 0
KPD2 092132Z 11001KT 12/M06 A3031 RMK A01 T01151062  RH  028%=      5-min Rain = 0
KPD2 092133Z 11001KT 11/M06 A3031 RMK A01 T01141062  RH  028%=      5-min Rain = 0
KPD2 092134Z 10001KT 11/M06 A3031 RMK A01 T01131060  RH  029%=      5-min Rain = 0
KPD2 092135Z 03003KT 11/M06 A3032 RMK A01 T01141059  RH  029%=      5-min Rain = 0
KPD2 092136Z 08001KT 12/M06 A3031 RMK A01 T01151059  RH  029%=      5-min Rain = 0
KPD2 092137Z 06001KT 11/M06 A3031 RMK A01 T01141060  RH  029%=      5-min Rain = 0
KPD2 092138Z 34006KT 11/M06 A3032 RMK A01 T01141057  RH  030%=      5-min Rain = 0
KPD2 092139Z 33004KT 12/M06 A3032 RMK A01 T01151057  RH  029%=      5-min Rain = 0
KPD2 092140Z 35005KT 12/M06 A3031 RMK A01 T01161057  RH  029%=      5-min Rain = 0
KPD2 092141Z 35006KT 12/M06 A3031 RMK A01 T01171055  RH  030%=      5-min Rain = 0
KPD2 092142Z 35004KT 12/M05 A3031 RMK A01 T01201054  RH  029%=      5-min Rain = 0
KPD2 092143Z 05002KT 12/M06 A3031 RMK A01 T01211055  RH  029%=      5-min Rain = 0
KPD2 092144Z 09002KT 12/M06 A3031 RMK A01 T01211058  RH  028%=      5-min Rain = 0
KPD2 092145Z 07001KT 12/M06 A3031 RMK A01 T01201057  RH  029%=      5-min Rain = 0
KPD2 092146Z 07002KT 12/M06 A3031 RMK A01 T01201055  RH  029%=      5-min Rain = 0
KPD2 092147Z 06003KT 12/M05 A3031 RMK A01 T01211054  RH  029%=      5-min Rain = 0
KPD2 092148Z 08002KT 12/M06 A3031 RMK A01 T01211055  RH  029%=      5-min Rain = 0
KPD2 092149Z 09002KT 12/M05 A3031 RMK A01 T01211054  RH  029%=      5-min Rain = 0
KPD2 092150Z 09001KT 12/M05 A3031 RMK A01 T01221053  RH  029%=      5-min Rain = 0
KPD2 092151Z 09003KT 12/M06 A3031 RMK A01 T01221055  RH  029%=      5-min Rain = 0
KPD2 092152Z 13003KT 12/M06 A3031 RMK A01 T01211056  RH  029%=      5-min Rain = 0
KPD2 092153Z 16003KT 12/M06 A3031 RMK A01 T01191057  RH  029%=      5-min Rain = 0
KPD2 092154Z 13001KT 12/M06 A3031 RMK A01 T01171057  RH  029%=      5-min Rain = 0
KPD2 092155Z 28001KT 12/M06 A3031 RMK A01 T01171056  RH  029%=      5-min Rain = 0
KPD2 092156Z 32002KT 12/M06 A3031 RMK A01 T01181056  RH  029%=      5-min Rain = 0
KPD2 092157Z 33002KT 12/M06 A3031 RMK A01 T01181057  RH  029%=      5-min Rain = 0
KPD2 092158Z 35003KT 12/M06 A3031 RMK A01 T01181057  RH  029%=      5-min Rain = 0
KPD2 092159Z 36001KT 12/M06 A3031 RMK A01 T01181057  RH  029%=      5-min Rain = 0
KPD2 092200Z 34002KT 12/M06 A3031 RMK A01 T01171059  RH  029%=      5-min Rain = 0
KPD2 092201Z 34004KT 12/M06 A3031 RMK A01 T01161058  RH  029%=      5-min Rain = 0
KPD2 092202Z 35004KT 12/M06 A3031 RMK A01 T01161058  RH  029%=      5-min Rain = 0
KPD2 092203Z 35002KT 12/M06 A3031 RMK A01 T01171058  RH  029%=      5-min Rain = 0
KPD2 092204Z 34002KT 12/M06 A3031 RMK A01 T01171059  RH  029%=      5-min Rain = 0
KPD2 092205Z 28002KT 12/M06 A3031 RMK A01 T01161061  RH  028%=      5-min Rain = 0
KPD2 092206Z 33002KT 12/M06 A303 RMK A01 T01161058  RH  029%=      5-min Rain = 0
KPD2 092207Z 31003KT 12/M06 A303 RMK A01 T01161060  RH  029%=      5-min Rain = 0
KPD2 092208Z 33003KT 12/M06 A303 RMK A01 T01161060  RH  029%=      5-min Rain = 0
KPD2 092209Z 35002KT 12/M06 A303 RMK A01 T01161059  RH  029%=      5-min Rain = 0
KPD2 092210Z 34001KT 12/M06 A303 RMK A01 T01161061  RH  029%=      5-min Rain = 0
KPD2 092211Z 29001KT 11/M06 A303 RMK A01 T01141062  RH  029%=      5-min Rain = 0
KPD2 092212Z 25001KT 11/M06 A303 RMK A01 T01141060  RH  029%=      5-min Rain = 0
KPD2 092213Z 27002KT 12/M06 A303 RMK A01 T01161059  RH  029%=      5-min Rain = 0
KPD2 092214Z 27002KT 12/M06 A303 RMK A01 T01161060  RH  029%=      5-min Rain = 0
KPD2 092215Z 29002KT 12/M06 A3031 RMK A01 T01171058  RH  029%=      5-min Rain = 0
KPD2 092216Z 31001KT 12/M06 A3031 RMK A01 T01171059  RH  029%=      5-min Rain = 0
KPD2 092217Z 32002KT 12/M06 A3031 RMK A01 T01171058  RH  029%=      5-min Rain = 0
KPD2 092218Z 34004KT 12/M06 A3031 RMK A01 T01181059  RH  029%=      5-min Rain = 0
KPD2 092219Z 03003KT 12/M06 A3031 RMK A01 T01171059  RH  029%=      5-min Rain = 0
KPD2 092220Z 09004KT 12/M06 A3031 RMK A01 T01151063  RH  028%=      5-min Rain = 0
KPD2 092221Z 09003KT 11/M06 A3031 RMK A01 T01141062  RH  029%=      5-min Rain = 0
KPD2 092222Z 11002KT 11/M06 A3031 RMK A01 T01141061  RH  029%=      5-min Rain = 0
KPD2 092223Z 07001KT 11/M06 A3031 RMK A01 T01141060  RH  029%=      5-min Rain = 0
KPD2 092224Z 17000KT 11/M06 A3031 RMK A01 T01141061  RH  029%=      5-min Rain = 0
KPD2 092225Z 18002KT 12/M06 A3031 RMK A01 T01151060  RH  029%=      5-min Rain = 0
KPD2 092226Z 17001KT 12/M06 A3031 RMK A01 T01151059  RH  029%=      5-min Rain = 0
KPD2 092227Z 16002KT 11/M06 A3031 RMK A01 T01141060  RH  029%=      5-min Rain = 0
KPD2 092228Z 16002KT 12/M06 A3031 RMK A01 T01151062  RH  029%=      5-min Rain = 0
KPD2 092229Z 14001KT 11/M06 A3031 RMK A01 T01141061  RH  029%=      5-min Rain = 0
KPD2 092230Z 13002KT 11/M06 A3031 RMK A01 T01141058  RH  029%=      5-min Rain = 0
KPD2 092231Z 14001KT 11/M06 A3031 RMK A01 T01141059  RH  029%=      5-min Rain = 0
KPD2 092232Z 13001KT 11/M06 A3031 RMK A01 T01141055  RH  030%=      5-min Rain = 0
KPD2 092233Z 16001KT 11/M06 A3031 RMK A01 T01141058  RH  029%=      5-min Rain = 0
KPD2 092234Z 18002KT 11/M06 A3031 RMK A01 T01141059  RH  029%=      5-min Rain = 0
KPD2 092235Z 14001KT 12/M06 A3031 RMK A01 T01151058  RH  029%=      5-min Rain = 0
KPD2 092236Z 18003KT 12/M06 A3031 RMK A01 T01151058  RH  029%=      5-min Rain = 0
KPD2 092237Z 20002KT 11/M06 A3031 RMK A01 T01141059  RH  029%=      5-min Rain = 0
KPD2 092238Z 22002KT 11/M06 A3031 RMK A01 T01141061  RH  029%=      5-min Rain = 0
KPD2 092239Z 24000KT 11/M06 A3031 RMK A01 T01131064  RH  028%=      5-min Rain = 0
KPD2 092240Z 17002KT 11/M06 A3031 RMK A01 T01131064  RH  028%=      5-min Rain = 0
KPD2 092241Z 17001KT 11/M06 A3031 RMK A01 T01121064  RH  028%=      5-min Rain = 0
KPD2 092242Z 00000KT 11/M06 A3031 RMK A01 T01131064  RH  029%=      5-min Rain = 0
KPD2 092243Z 25000KT 11/M06 A3031 RMK A01 T01141063  RH  028%=      5-min Rain = 0
KPD2 092244Z 35001KT 12/M07 A3031 RMK A01 T01151065  RH  028%=      5-min Rain = 0
KPD2 092245Z 31001KT 12/M06 A3031 RMK A01 T01151064  RH  028%=      5-min Rain = 0
KPD2 092246Z 27002KT 12/M06 A3031 RMK A01 T01151060  RH  029%=      5-min Rain = 0
KPD2 092247Z 26003KT 11/M06 A3031 RMK A01 T01131058  RH  030%=      5-min Rain = 0
KPD2 092248Z 23003KT 11/M06 A3031 RMK A01 T01121057  RH  030%=      5-min Rain = 0
KPD2 092249Z 24002KT 11/M06 A3031 RMK A01 T01101056  RH  031%=      5-min Rain = 0
KPD2 092250Z 25002KT 11/M06 A3031 RMK A01 T01091056  RH  031%=      5-min Rain = 0
KPD2 092251Z 29003KT 11/M06 A3031 RMK A01 T01081057  RH  031%=      5-min Rain = 0
KPD2 092252Z 31002KT 11/M06 A3031 RMK A01 T01081057  RH  031%=      5-min Rain = 0
KPD2 092253Z 01001KT 11/M06 A3031 RMK A01 T01081060  RH  030%=      5-min Rain = 0
KPD2 092254Z 01002KT 11/M06 A3032 RMK A01 T01081064  RH  029%=      5-min Rain = 0
KPD2 092255Z 32000KT 11/M06 A3032 RMK A01 T01071064  RH  029%=      5-min Rain = 0
KPD2 092256Z 28001KT 11/M06 A3032 RMK A01 T01071061  RH  030%=      5-min Rain = 0
KPD2 092257Z 21002KT 11/M06 A3032 RMK A01 T01061060  RH  031%=      5-min Rain = 0
KPD2 092258Z 21001KT 10/M06 A3032 RMK A01 T01041059  RH  031%=      5-min Rain = 0
KPD2 092259Z 01001KT 10/M06 A3032 RMK A01 T01031059  RH  031%=      5-min Rain = 0
KPD2 092300Z 33002KT 10/M07 A3032 RMK A01 T01021066  RH  030%=      5-min Rain = 0
KPD2 092301Z 26001KT 10/M07 A3032 RMK A01 T01021073  RH  029%=      5-min Rain = 0
KPD2 092302Z 31001KT 10/M07 A3032 RMK A01 T01021073  RH  028%=      5-min Rain = 0
KPD2 092303Z 30001KT 10/M07 A3032 RMK A01 T01011070  RH  029%=      5-min Rain = 0
KPD2 092304Z 35001KT 10/M07 A3032 RMK A01 T01001067  RH  030%=      5-min Rain = 0
KPD2 092305Z 33003KT 10/M07 A3032 RMK A01 T00991068  RH  030%=      5-min Rain = 0
KPD2 092306Z 34003KT 10/M07 A3032 RMK A01 T00991069  RH  030%=      5-min Rain = 0
KPD2 092307Z 01002KT 10/M07 A3032 RMK A01 T00971067  RH  031%=      5-min Rain = 0
KPD2 092308Z 35000KT 10/M07 A3032 RMK A01 T00961068  RH  031%=      5-min Rain = 0
KPD2 092309Z 12001KT 10/M06 A3032 RMK A01 T00951064  RH  032%=      5-min Rain = 0
KPD2 092310Z 12001KT 09/M06 A3032 RMK A01 T00931061  RH  033%=      5-min Rain = 0
KPD2 092311Z 12000KT 09/M06 A3032 RMK A01 T00921060  RH  034%=      5-min Rain = 0
KPD2 092312Z 00000KT 09/M06 A3032 RMK A01 T00901058  RH  034%=      5-min Rain = 0
KPD2 092313Z 16000KT 09/M06 A3032 RMK A01 T00891059  RH  035%=      5-min Rain = 0
KPD2 092314Z 16002KT 09/M06 A3032 RMK A01 T00871058  RH  035%=      5-min Rain = 0
KPD2 092315Z 15002KT 09/M06 A3032 RMK A01 T00861057  RH  036%=      5-min Rain = 0
KPD2 092316Z 13002KT 08/M06 A3032 RMK A01 T00841058  RH  036%=      5-min Rain = 0
KPD2 092317Z 13002KT 08/M06 A3032 RMK A01 T00831057  RH  036%=      5-min Rain = 0
KPD2 092318Z 12001KT 08/M06 A3032 RMK A01 T00821057  RH  037%=      5-min Rain = 0
KPD2 092319Z 17001KT 08/M06 A3032 RMK A01 T00811058  RH  037%=      5-min Rain = 0
KPD2 092320Z 18001KT 08/M06 A3032 RMK A01 T00801057  RH  037%=      5-min Rain = 0
KPD2 092321Z 18000KT 08/M06 A3032 RMK A01 T00791057  RH  037%=      5-min Rain = 0
KPD2 092322Z 17000KT 08/M06 A3032 RMK A01 T00781058  RH  037%=      5-min Rain = 0
KPD2 092323Z 18001KT 08/M06 A3032 RMK A01 T00781061  RH  037%=      5-min Rain = 0
KPD2 092324Z 19001KT 08/M06 A3032 RMK A01 T00771060  RH  037%=      5-min Rain = 0
KPD2 092325Z 22002KT 08/M06 A3032 RMK A01 T00761059  RH  038%=      5-min Rain = 0
KPD2 092326Z 23001KT 08/M06 A3032 RMK A01 T00751058  RH  038%=      5-min Rain = 0
KPD2 092327Z 20001KT 07/M06 A3032 RMK A01 T00731059  RH  039%=      5-min Rain = 0
KPD2 092328Z 21002KT 07/M06 A3032 RMK A01 T00721058  RH  039%=      5-min Rain = 0
KPD2 092329Z 22002KT 07/M06 A3032 RMK A01 T00711059  RH  039%=      5-min Rain = 0
KPD2 092330Z 21002KT 07/M06 A3032 RMK A01 T00711061  RH  038%=      5-min Rain = 0
KPD2 092331Z 21001KT 07/M06 A3032 RMK A01 T00711060  RH  039%=      5-min Rain = 0
KPD2 092332Z 22002KT 07/M06 A3032 RMK A01 T00701061  RH  039%=      5-min Rain = 0
KPD2 092333Z 22002KT 07/M06 A3032 RMK A01 T00701061  RH  039%=      5-min Rain = 0
KPD2 092334Z 20002KT 07/M06 A3032 RMK A01 T00691061  RH  039%=      5-min Rain = 0
KPD2 092335Z 18000KT 07/M06 A3032 RMK A01 T00681061  RH  039%=      5-min Rain = 0
KPD2 092336Z 17000KT 07/M06 A3032 RMK A01 T00671061  RH  039%=      5-min Rain = 0
KPD2 092337Z 17000KT 07/M06 A3032 RMK A01 T00671061  RH  040%=      5-min Rain = 0
KPD2 092338Z 00000KT 07/M06 A3032 RMK A01 T00661062  RH  040%=      5-min Rain = 0
KPD2 092339Z 00000KT 07/M06 A3032 RMK A01 T00651062  RH  040%=      5-min Rain = 0
KPD2 092340Z 00000KT 06/M06 A3032 RMK A01 T00641062  RH  040%=      5-min Rain = 0
KPD2 092341Z 00000KT 06/M06 A3032 RMK A01 T00641062  RH  040%=      5-min Rain = 0
KPD2 092342Z 00000KT 06/M06 A3032 RMK A01 T00631062  RH  040%=      5-min Rain = 0
KPD2 092343Z 00000KT 06/M06 A3032 RMK A01 T00631063  RH  040%=      5-min Rain = 0
KPD2 092344Z 00000KT 06/M06 A3032 RMK A01 T00621063  RH  040%=      5-min Rain = 0
KPD2 092345Z 00000KT 06/M06 A3032 RMK A01 T00611061  RH  041%=      5-min Rain = 0
KPD2 092346Z 00000KT 06/M06 A3032 RMK A01 T00611061  RH  041%=      5-min Rain = 0
KPD2 092347Z 00000KT 06/M06 A3032 RMK A01 T00591063  RH  041%=      5-min Rain = 0
KPD2 092348Z 00000KT 06/M06 A3032 RMK A01 T00581063  RH  041%=      5-min Rain = 0
KPD2 092349Z 00000KT 06/M07 A3032 RMK A01 T00571065  RH  041%=      5-min Rain = 0
KPD2 092350Z 00000KT 06/M06 A3033 RMK A01 T00551064  RH  042%=      5-min Rain = 0
KPD2 092351Z 00000KT 05/M06 A3033 RMK A01 T00541062  RH  043%=      5-min Rain = 0
KPD2 092352Z 00000KT 05/M06 A3033 RMK A01 T00541061  RH  043%=      5-min Rain = 0
KPD2 092353Z 23000KT 05/M06 A3033 RMK A01 T00531062  RH  043%=      5-min Rain = 0
KPD2 092354Z 23001KT 05/M06 A3033 RMK A01 T00521062  RH  044%=      5-min Rain = 0
KPD2 092355Z 23001KT 05/M06 A3033 RMK A01 T00511062  RH  044%=      5-min Rain = 0
KPD2 092356Z 23001KT 05/M06 A3033 RMK A01 T00501061  RH  044%=      5-min Rain = 0
KPD2 092357Z 23000KT 05/M06 A3033 RMK A01 T00501061  RH  045%=      5-min Rain = 0
KPD2 092358Z 00000KT 05/M06 A3033 RMK A01 T00491060  RH  045%=      5-min Rain = 0
KPD2 092359Z 00000KT 05/M06 A3033 RMK A01 T00491059  RH  045%=      5-min Rain = 0
KPD2 100000Z 23000KT 05/M06 A3033 RMK A01 T00491058  RH  046%=      5-min Rain = 0
KPD2 100001Z 21000KT 05/M06 A3033 RMK A01 T00481058  RH  046%=      5-min Rain = 0
KPD2 100002Z 18001KT 05/M06 A3033 RMK A01 T00471057  RH  047%=      5-min Rain = 0
KPD2 100003Z 18001KT 05/M06 A3033 RMK A01 T00461057  RH  047%=      5-min Rain = 0
KPD2 100004Z 18001KT 05/M06 A3033 RMK A01 T00451057  RH  047%=      5-min Rain = 0
KPD2 100005Z 18000KT 05/M06 A3033 RMK A01 T00461057  RH  047%=      5-min Rain = 0
KPD2 100006Z 05000KT 05/M06 A3033 RMK A01 T00451057  RH  048%=      5-min Rain = 0
KPD2 100007Z 05002KT 05/M06 A3033 RMK A01 T00451057  RH  048%=      5-min Rain = 0
KPD2 100008Z 02002KT 05/M06 A3033 RMK A01 T00451057  RH  048%=      5-min Rain = 0
KPD2 100009Z 02002KT 04/M06 A3033 RMK A01 T00441057  RH  048%=      5-min Rain = 0
KPD2 100010Z 02003KT 04/M06 A3033 RMK A01 T00441058  RH  048%=      5-min Rain = 0
KPD2 100011Z 01004KT 04/M06 A3034 RMK A01 T00441058  RH  047%=      5-min Rain = 0
KPD2 100012Z 02004KT 05/M06 A3034 RMK A01 T00451062  RH  046%=      5-min Rain = 0
KPD2 100013Z 02004KT 05/M07 A3034 RMK A01 T00481067  RH  043%=      5-min Rain = 0
KPD2 100014Z 02005KT 05/M07 A3034 RMK A01 T00511068  RH  042%=      5-min Rain = 0
KPD2 100015Z 02004KT 06/M07 A3034 RMK A01 T00561068  RH  041%=      5-min Rain = 0
KPD2 100016Z 02004KT 06/M07 A3034 RMK A01 T00581066  RH  040%=      5-min Rain = 0
KPD2 100017Z 02004KT 06/M07 A3034 RMK A01 T00571065  RH  041%=      5-min Rain = 0
KPD2 100018Z 03003KT 05/M06 A3034 RMK A01 T00541063  RH  042%=      5-min Rain = 0
KPD2 100019Z 04003KT 05/M06 A3034 RMK A01 T00521064  RH  043%=      5-min Rain = 0
KPD2 100020Z 01003KT 05/M06 A3034 RMK A01 T00511063  RH  044%=      5-min Rain = 0
KPD2 100021Z 05003KT 05/M06 A3034 RMK A01 T00501063  RH  044%=      5-min Rain = 0
KPD2 100022Z 03003KT 05/M07 A3034 RMK A01 T00511065  RH  043%=      5-min Rain = 0
KPD2 100023Z 04002KT 05/M07 A3034 RMK A01 T00531065  RH  042%=      5-min Rain = 0
KPD2 100024Z 07001KT 05/M06 A3034 RMK A01 T00541064  RH  042%=      5-min Rain = 0
KPD2 100025Z 09001KT 05/M06 A3034 RMK A01 T00531063  RH  043%=      5-min Rain = 0
KPD2 100026Z 11001KT 05/M06 A3034 RMK A01 T00511061  RH  044%=      5-min Rain = 0
KPD2 100027Z 11001KT 05/M06 A3034 RMK A01 T00491061  RH  045%=      5-min Rain = 0
KPD2 100028Z 09002KT 05/M06 A3034 RMK A01 T00471063  RH  045%=      5-min Rain = 0
KPD2 100029Z 10003KT 05/M06 A3034 RMK A01 T00461063  RH  045%=      5-min Rain = 0
KPD2 100030Z 07001KT 05/M06 A3034 RMK A01 T00461062  RH  045%=      5-min Rain = 0
KPD2 100031Z 06001KT 05/M06 A3034 RMK A01 T00461063  RH  045%=      5-min Rain = 0
KPD2 100032Z 09002KT 05/M06 A3034 RMK A01 T00461064  RH  045%=      5-min Rain = 0
KPD2 100033Z 08001KT 05/M06 A3034 RMK A01 T00461064  RH  045%=      5-min Rain = 0
KPD2 100034Z 11001KT 05/M06 A3034 RMK A01 T00461064  RH  045%=      5-min Rain = 0
KPD2 100035Z 14003KT 05/M06 A3034 RMK A01 T00471063  RH  045%=      5-min Rain = 0
KPD2 100036Z 10001KT 05/M06 A3034 RMK A01 T00461062  RH  045%=      5-min Rain = 0
KPD2 100037Z 16001KT 05/M06 A3034 RMK A01 T00461063  RH  045%=      5-min Rain = 0
KPD2 100038Z 20001KT 05/M06 A3034 RMK A01 T00451064  RH  045%=      5-min Rain = 0
KPD2 100039Z 22002KT 04/M06 A3034 RMK A01 T00441064  RH  045%=      5-min Rain = 0
KPD2 100040Z 22003KT 04/M06 A3034 RMK A01 T00441064  RH  045%=      5-min Rain = 0
KPD2 100041Z 22001KT 04/M07 A3034 RMK A01 T00431065  RH  046%=      5-min Rain = 0
KPD2 100042Z 20001KT 04/M06 A3034 RMK A01 T00421064  RH  046%=      5-min Rain = 0
KPD2 100043Z 20001KT 04/M06 A3034 RMK A01 T00411064  RH  046%=      5-min Rain = 0
KPD2 100044Z 17001KT 04/M06 A3034 RMK A01 T00401064  RH  047%=      5-min Rain = 0
KPD2 100045Z 15001KT 04/M06 A3034 RMK A01 T00401064  RH  047%=      5-min Rain = 0
KPD2 100046Z 17002KT 04/M06 A3034 RMK A01 T00391064  RH  047%=      5-min Rain = 0
KPD2 100047Z 18001KT 04/M06 A3034 RMK A01 T00391064  RH  047%=      5-min Rain = 0
KPD2 100048Z 22002KT 04/M06 A3034 RMK A01 T00381064  RH  047%=      5-min Rain = 0
KPD2 100049Z 22001KT 04/M06 A3034 RMK A01 T00381064  RH  047%=      5-min Rain = 0
KPD2 100050Z 22002KT 04/M06 A3034 RMK A01 T00381064  RH  047%=      5-min Rain = 0
KPD2 100051Z 26002KT 04/M06 A3034 RMK A01 T00381064  RH  047%=      5-min Rain = 0
KPD2 100052Z 28002KT 04/M07 A3035 RMK A01 T00381065  RH  047%=      5-min Rain = 0
KPD2 100053Z 27002KT 04/M07 A3035 RMK A01 T00381065  RH  047%=      5-min Rain = 0
KPD2 100054Z 27002KT 04/M07 A3035 RMK A01 T00371065  RH  047%=      5-min Rain = 0
KPD2 100055Z 28002KT 04/M07 A3035 RMK A01 T00361066  RH  047%=      5-min Rain = 0
KPD2 100056Z 27002KT 04/M07 A3035 RMK A01 T00351066  RH  048%=      5-min Rain = 0
KPD2 100057Z 25001KT 03/M07 A3035 RMK A01 T00341065  RH  048%=      5-min Rain = 0
KPD2 100058Z 27001KT 03/M06 A3035 RMK A01 T00331064  RH  049%=      5-min Rain = 0
KPD2 100059Z 27001KT 03/M06 A3035 RMK A01 T00331064  RH  049%=      5-min Rain = 0
KPD2 100100Z 31001KT 03/M07 A3035 RMK A01 T00321065  RH  049%=      5-min Rain = 0
KPD2 100101Z 32001KT 03/M07 A3035 RMK A01 T00321065  RH  049%=      5-min Rain = 0
KPD2 100102Z 30001KT 03/M07 A3035 RMK A01 T00311066  RH  049%=      5-min Rain = 0
KPD2 100103Z 32000KT 03/M07 A3035 RMK A01 T00311065  RH  049%=      5-min Rain = 0
KPD2 100104Z 32000KT 03/M07 A3035 RMK A01 T00311066  RH  049%=      5-min Rain = 0
KPD2 100105Z 28000KT 03/M07 A3035 RMK A01 T00311066  RH  049%=      5-min Rain = 0
KPD2 100106Z 27001KT 03/M07 A3035 RMK A01 T00311066  RH  049%=      5-min Rain = 0
KPD2 100107Z 02000KT 03/M07 A3035 RMK A01 T00311067  RH  049%=      5-min Rain = 0
KPD2 100108Z 03000KT 03/M07 A3035 RMK A01 T00311068  RH  048%=      5-min Rain = 0
KPD2 100109Z 00000KT 03/M07 A3035 RMK A01 T00321068  RH  048%=      5-min Rain = 0
KPD2 100110Z 00000KT 03/M07 A3035 RMK A01 T00331068  RH  048%=      5-min Rain = 0
KPD2 100111Z 35001KT 03/M07 A3035 RMK A01 T00331068  RH  047%=      5-min Rain = 0
KPD2 100112Z 32002KT 03/M07 A3035 RMK A01 T00331069  RH  047%=      5-min Rain = 0
KPD2 100113Z 35001KT 03/M07 A3035 RMK A01 T00341069  RH  047%=      5-min Rain = 0
KPD2 100114Z 01002KT 03/M07 A3035 RMK A01 T00331068  RH  047%=      5-min Rain = 0
KPD2 100115Z 36001KT 03/M07 A3035 RMK A01 T00321069  RH  047%=      5-min Rain = 0
KPD2 100116Z 27001KT 03/M07 A3035 RMK A01 T00321069  RH  047%=      5-min Rain = 0
KPD2 100117Z 27000KT 03/M07 A3035 RMK A01 T00311069  RH  048%=      5-min Rain = 0
KPD2 100118Z 27001KT 03/M07 A3035 RMK A01 T00301068  RH  049%=      5-min Rain = 0
KPD2 100119Z 27001KT 03/M07 A3035 RMK A01 T00301068  RH  049%=      5-min Rain = 0
KPD2 100120Z 27001KT 03/M07 A3036 RMK A01 T00291067  RH  049%=      5-min Rain = 0
KPD2 100121Z 27001KT 03/M07 A3036 RMK A01 T00281067  RH  049%=      5-min Rain = 0
KPD2 100122Z 26001KT 03/M07 A3036 RMK A01 T00271068  RH  050%=      5-min Rain = 0
KPD2 100123Z 26001KT 03/M07 A3036 RMK A01 T00251068  RH  050%=      5-min Rain = 0
KPD2 100124Z 27002KT 02/M07 A3036 RMK A01 T00241068  RH  051%=      5-min Rain = 0
KPD2 100125Z 27002KT 02/M07 A3036 RMK A01 T00231068  RH  051%=      5-min Rain = 0
KPD2 100126Z 27002KT 02/M07 A3036 RMK A01 T00221068  RH  051%=      5-min Rain = 0
KPD2 100127Z 27001KT 02/M07 A3036 RMK A01 T00221068  RH  052%=      5-min Rain = 0
KPD2 100128Z 27001KT 02/M07 A3036 RMK A01 T00211068  RH  052%=      5-min Rain = 0
KPD2 100129Z 27001KT 02/M07 A3036 RMK A01 T00201068  RH  052%=      5-min Rain = 0
KPD2 100130Z 27002KT 02/M07 A3036 RMK A01 T00191068  RH  052%=      5-min Rain = 0
KPD2 100131Z 30001KT 02/M07 A3036 RMK A01 T00191067  RH  053%=      5-min Rain = 0
KPD2 100132Z 33001KT 02/M07 A3036 RMK A01 T00191067  RH  053%=      5-min Rain = 0
KPD2 100133Z 33001KT 02/M07 A3036 RMK A01 T00191067  RH  053%=      5-min Rain = 0
KPD2 100134Z 34002KT 02/M07 A3036 RMK A01 T00191067  RH  053%=      5-min Rain = 0
KPD2 100135Z 35001KT 02/M07 A3036 RMK A01 T00191067  RH  053%=      5-min Rain = 0
KPD2 100136Z 01001KT 02/M07 A3036 RMK A01 T00191068  RH  053%=      5-min Rain = 0
KPD2 100137Z 01002KT 02/M07 A3036 RMK A01 T00201067  RH  052%=      5-min Rain = 0
KPD2 100138Z 35002KT 02/M07 A3036 RMK A01 T00221067  RH  052%=      5-min Rain = 0
KPD2 100139Z 33001KT 02/M07 A3036 RMK A01 T00241066  RH  051%=      5-min Rain = 0
KPD2 100140Z 33001KT 03/M07 A3036 RMK A01 T00261066  RH  051%=      5-min Rain = 0
KPD2 100141Z 00000KT 03/M07 A3036 RMK A01 T00271067  RH  050%=      5-min Rain = 0
KPD2 100142Z 31000KT 03/M07 A3036 RMK A01 T00271068  RH  050%=      5-min Rain = 0
KPD2 100143Z 26001KT 03/M07 A3036 RMK A01 T00271067  RH  050%=      5-min Rain = 0
KPD2 100144Z 25002KT 03/M07 A3036 RMK A01 T00281067  RH  050%=      5-min Rain = 0
KPD2 100145Z 25002KT 03/M07 A3036 RMK A01 T00291067  RH  049%=      5-min Rain = 0
KPD2 100146Z 24002KT 03/M07 A3036 RMK A01 T00291067  RH  049%=      5-min Rain = 0
KPD2 100147Z 24000KT 03/M07 A3036 RMK A01 T00281066  RH  050%=      5-min Rain = 0
KPD2 100148Z 23000KT 03/M07 A3036 RMK A01 T00261066  RH  051%=      5-min Rain = 0
KPD2 100149Z 23001KT 03/M07 A3036 RMK A01 T00251067  RH  051%=      5-min Rain = 0
KPD2 100150Z 23001KT 03/M07 A3036 RMK A01 T00251067  RH  051%=      5-min Rain = 0
KPD2 100151Z 23000KT 02/M07 A3036 RMK A01 T00231068  RH  051%=      5-min Rain = 0
KPD2 100152Z 29001KT 02/M07 A3036 RMK A01 T00221068  RH  051%=      5-min Rain = 0
KPD2 100153Z 29001KT 02/M07 A3036 RMK A01 T00221068  RH  052%=      5-min Rain = 0
KPD2 100154Z 34002KT 02/M07 A3036 RMK A01 T00221067  RH  052%=      5-min Rain = 0
KPD2 100155Z 35002KT 02/M07 A3036 RMK A01 T00211068  RH  052%=      5-min Rain = 0
KPD2 100156Z 33002KT 02/M07 A3036 RMK A01 T00201068  RH  052%=      5-min Rain = 0
KPD2 100157Z 33002KT 02/M07 A3036 RMK A01 T00201068  RH  052%=      5-min Rain = 0
KPD2 100158Z 33002KT 02/M07 A3036 RMK A01 T00191068  RH  052%=      5-min Rain = 0
KPD2 100159Z 32002KT 02/M07 A3036 RMK A01 T00181068  RH  053%=      5-min Rain = 0
KPD2 100200Z 31001KT 02/M07 A3036 RMK A01 T00181068  RH  053%=      5-min Rain = 0
KPD2 100201Z 31001KT 02/M07 A3036 RMK A01 T00171068  RH  053%=      5-min Rain = 0
KPD2 100202Z 30001KT 02/M07 A3036 RMK A01 T00171068  RH  053%=      5-min Rain = 0
KPD2 100203Z 32001KT 02/M07 A3036 RMK A01 T00161069  RH  053%=      5-min Rain = 0
KPD2 100204Z 32001KT 02/M07 A3036 RMK A01 T00151069  RH  053%=      5-min Rain = 0
KPD2 100205Z 33001KT 01/M07 A3036 RMK A01 T00141069  RH  054%=      5-min Rain = 0
KPD2 100206Z 35001KT 01/M07 A3036 RMK A01 T00141068  RH  054%=      5-min Rain = 0
KPD2 100207Z 00001KT 01/M07 A3036 RMK A01 T00141068  RH  054%=      5-min Rain = 0
KPD2 100208Z 00000KT 01/M07 A3036 RMK A01 T00141068  RH  054%=      5-min Rain = 0
KPD2 100209Z 00000KT 01/M07 A3036 RMK A01 T00141068  RH  054%=      5-min Rain = 0
KPD2 100210Z 30000KT 02/M07 A3036 RMK A01 T00151068  RH  054%=      5-min Rain = 0
KPD2 100211Z 27002KT 02/M07 A3036 RMK A01 T00151068  RH  054%=      5-min Rain = 0
KPD2 100212Z 26002KT 01/M07 A3036 RMK A01 T00131069  RH  054%=      5-min Rain = 0
KPD2 100213Z 27002KT 01/M07 A3036 RMK A01 T00101071  RH  055%=      5-min Rain = 0
KPD2 100214Z 28001KT 01/M07 A3036 RMK A01 T00081070  RH  056%=      5-min Rain = 0
KPD2 100215Z 30001KT 01/M07 A3036 RMK A01 T00061070  RH  056%=      5-min Rain = 0
KPD2 100216Z 00000KT 01/M07 A3036 RMK A01 T00061070  RH  057%=      5-min Rain = 0
KPD2 100217Z 34002KT 01/M07 A3036 RMK A01 T00051070  RH  057%=      5-min Rain = 0
KPD2 100218Z 36002KT 00/M07 A3036 RMK A01 T00041070  RH  057%=      5-min Rain = 0
KPD2 100219Z 36003KT 01/M07 A3037 RMK A01 T00051070  RH  058%=      5-min Rain = 0
KPD2 100220Z 01003KT 01/M07 A3036 RMK A01 T00051069  RH  058%=      5-min Rain = 0
KPD2 100221Z 00002KT 01/M07 A3036 RMK A01 T00051070  RH  057%=      5-min Rain = 0
KPD2 100222Z 33001KT 01/M07 A3036 RMK A01 T00051070  RH  057%=      5-min Rain = 0
KPD2 100223Z 24000KT 01/M07 A3036 RMK A01 T00051070  RH  057%=      5-min Rain = 0
KPD2 100224Z 22004KT 01/M07 A3036 RMK A01 T00051070  RH  057%=      5-min Rain = 0
KPD2 100225Z 23003KT 00/M07 A3036 RMK A01 T00031070  RH  058%=      5-min Rain = 0
KPD2 100226Z 22002KT 00/M07 A3036 RMK A01 T00021069  RH  059%=      5-min Rain = 0
KPD2 100227Z 00000KT 00/M07 A3037 RMK A01 T00011068  RH  060%=      5-min Rain = 0
KPD2 100228Z 00000KT 00/07 A3037 RMK A01 T00000-68  RH  060%=      5-min Rain = 0
KPD2 100229Z 23000KT 00/07 A3037 RMK A01 T00-00-68  RH  060%=      5-min Rain = 0
KPD2 100230Z 28000KT 00/M07 A3037 RMK A01 T00011068  RH  060%=      5-min Rain = 0
KPD2 100231Z 31002KT 00/M07 A3037 RMK A01 T00011068  RH  060%=      5-min Rain = 0
KPD2 100232Z 34002KT 00/M07 A3037 RMK A01 T00011068  RH  059%=      5-min Rain = 0
KPD2 100233Z 33002KT 00/M07 A3037 RMK A01 T00021069  RH  059%=      5-min Rain = 0
KPD2 100234Z 32002KT 00/M07 A3037 RMK A01 T00011069  RH  059%=      5-min Rain = 0
KPD2 100235Z 31003KT 00/M07 A3037 RMK A01 T00011069  RH  059%=      5-min Rain = 0
KPD2 100236Z 32004KT 00/07 A3037 RMK A01 T00000-70  RH  059%=      5-min Rain = 0
KPD2 100237Z 33004KT 00/07 A3038 RMK A01 T00-00-71  RH  059%=      5-min Rain = 0
KPD2 100238Z 32003KT M00/M07 A3038 RMK A01 T10021073  RH  059%=      5-min Rain = 0
KPD2 100239Z 29003KT M00/M07 A3037 RMK A01 T10031072  RH  060%=      5-min Rain = 0
KPD2 100240Z 29004KT M00/M07 A3037 RMK A01 T10021071  RH  060%=      5-min Rain = 0
KPD2 100241Z 30004KT M00/M07 A3037 RMK A01 T10031072  RH  060%=      5-min Rain = 0
KPD2 100242Z 31004KT M00/M07 A3037 RMK A01 T10031072  RH  060%=      5-min Rain = 0
KPD2 100243Z 34004KT M00/M07 A3037 RMK A01 T10021072  RH  060%=      5-min Rain = 0
KPD2 100244Z 35005KT M00/M07 A3038 RMK A01 T10021071  RH  060%=      5-min Rain = 0
KPD2 100245Z 33006KT M00/M07 A3038 RMK A01 T10011071  RH  059%=      5-min Rain = 0
KPD2 100246Z 32006KT 00/07 A3038 RMK A01 T00000-70  RH  059%=      5-min Rain = 0
KPD2 100247Z 32006KT 00/M07 A3038 RMK A01 T00031069  RH  059%=      5-min Rain = 0
KPD2 100248Z 32004KT 01/M07 A3038 RMK A01 T00051069  RH  057%=      5-min Rain = 0
KPD2 100249Z 29004KT 01/M07 A3038 RMK A01 T00071069  RH  057%=      5-min Rain = 0
KPD2 100250Z 28004KT 01/M07 A3038 RMK A01 T00071070  RH  056%=      5-min Rain = 0
KPD2 100251Z 28004KT 01/M07 A3038 RMK A01 T00081070  RH  056%=      5-min Rain = 0
KPD2 100252Z 28003KT 01/M07 A3038 RMK A01 T00081070  RH  056%=      5-min Rain = 0
KPD2 100253Z 29004KT 01/M07 A3038 RMK A01 T00081070  RH  056%=      5-min Rain = 0
KPD2 100254Z 31003KT 01/M07 A3038 RMK A01 T00061071  RH  056%=      5-min Rain = 0
KPD2 100255Z 32003KT 01/M07 A3038 RMK A01 T00051071  RH  057%=      5-min Rain = 0
KPD2 100256Z 30002KT 00/M07 A3038 RMK A01 T00041071  RH  057%=      5-min Rain = 0
KPD2 100257Z 32002KT 00/M07 A3038 RMK A01 T00031072  RH  057%=      5-min Rain = 0
KPD2 100258Z 34002KT 00/M07 A3038 RMK A01 T00021072  RH  057%=      5-min Rain = 0
KPD2 100259Z 34003KT 00/M07 A3038 RMK A01 T00021072  RH  058%=      5-min Rain = 0
KPD2 100300Z 33003KT 00/M07 A3038 RMK A01 T00011072  RH  058%=      5-min Rain = 0
KPD2 100301Z 31003KT 00/M07 A3038 RMK A01 T00011072  RH  058%=      5-min Rain = 0
KPD2 100302Z 31002KT 00/M07 A3038 RMK A01 T00021072  RH  058%=      5-min Rain = 0
KPD2 100303Z 31001KT 00/M07 A3037 RMK A01 T00041071  RH  057%=      5-min Rain = 0
KPD2 100304Z 32000KT 01/M07 A3037 RMK A01 T00051071  RH  056%=      5-min Rain = 0
KPD2 100305Z 35000KT 01/M07 A3037 RMK A01 T00071071  RH  056%=      5-min Rain = 0
KPD2 100306Z 35000KT 01/M07 A3037 RMK A01 T00061070  RH  057%=      5-min Rain = 0
KPD2 100307Z 33000KT 01/M07 A3037 RMK A01 T00051070  RH  057%=      5-min Rain = 0
KPD2 100308Z 34002KT 00/M07 A3037 RMK A01 T00041070  RH  058%=      5-min Rain = 0
KPD2 100309Z 00002KT 00/M07 A3037 RMK A01 T00031070  RH  058%=      5-min Rain = 0
KPD2 100310Z 01004KT 00/M07 A3037 RMK A01 T00021070  RH  058%=      5-min Rain = 0
KPD2 100311Z 00004KT 00/M07 A3037 RMK A01 T00021071  RH  058%=      5-min Rain = 0
KPD2 100312Z 35004KT 00/M07 A3037 RMK A01 T00011071  RH  058%=      5-min Rain = 0
KPD2 100313Z 01002KT 00/M07 A3037 RMK A01 T00011071  RH  059%=      5-min Rain = 0
KPD2 100314Z 02001KT 00/M07 A3037 RMK A01 T00011071  RH  059%=      5-min Rain = 0
KPD2 100315Z 00000KT 00/M07 A3037 RMK A01 T00021071  RH  058%=      5-min Rain = 0
KPD2 100316Z 24001KT 00/M07 A3037 RMK A01 T00041071  RH  057%=      5-min Rain = 0
KPD2 100317Z 24004KT 01/M07 A3038 RMK A01 T00051072  RH  056%=      5-min Rain = 0
KPD2 100318Z 25004KT 00/M07 A3038 RMK A01 T00021072  RH  057%=      5-min Rain = 0
KPD2 100319Z 26004KT 00/07 A3038 RMK A01 T00-00-72  RH  059%=      5-min Rain = 0
KPD2 100320Z 25002KT M00/M07 A3038 RMK A01 T10021072  RH  059%=      5-min Rain = 0
KPD2 100321Z 25001KT M00/M07 A3038 RMK A01 T10031071  RH  060%=      5-min Rain = 0
KPD2 100322Z 00000KT M00/M07 A3038 RMK A01 T10041071  RH  061%=      5-min Rain = 0
KPD2 100323Z 35001KT M00/M07 A3038 RMK A01 T10041070  RH  061%=      5-min Rain = 0
KPD2 100324Z 35002KT M00/M07 A3038 RMK A01 T10041070  RH  061%=      5-min Rain = 0
KPD2 100325Z 00003KT M00/M07 A3037 RMK A01 T10031070  RH  061%=      5-min Rain = 0
KPD2 100326Z 34004KT M00/M07 A3037 RMK A01 T10011070  RH  060%=      5-min Rain = 0
KPD2 100327Z 33004KT 00/07 A3037 RMK A01 T00-00-70  RH  060%=      5-min Rain = 0
KPD2 100328Z 33003KT 00/M07 A3037 RMK A01 T00011070  RH  059%=      5-min Rain = 0
KPD2 100329Z 34002KT 00/M07 A3037 RMK A01 T00021070  RH  059%=      5-min Rain = 0
KPD2 100330Z 33002KT 00/M07 A3037 RMK A01 T00021070  RH  058%=      5-min Rain = 0
KPD2 100331Z 32002KT 00/M07 A3037 RMK A01 T00021071  RH  058%=      5-min Rain = 0
KPD2 100332Z 30002KT 00/M07 A3037 RMK A01 T00011071  RH  058%=      5-min Rain = 0
KPD2 100333Z 30002KT 00/M07 A3037 RMK A01 T00011071  RH  058%=      5-min Rain = 0
KPD2 100334Z 29002KT 00/07 A3037 RMK A01 T00-00-72  RH  059%=      5-min Rain = 0
KPD2 100335Z 27002KT M00/M07 A3037 RMK A01 T10011072  RH  059%=      5-min Rain = 0
KPD2 100336Z 26003KT M00/M07 A3038 RMK A01 T10021072  RH  059%=      5-min Rain = 0
KPD2 100337Z 27002KT M00/M07 A3038 RMK A01 T10041073  RH  060%=      5-min Rain = 0
KPD2 100338Z 27003KT M01/M07 A3038 RMK A01 T10051072  RH  060%=      5-min Rain = 0
KPD2 100339Z 28003KT M01/M07 A3038 RMK A01 T10061073  RH  061%=      5-min Rain = 0
KPD2 100340Z 28003KT M01/M07 A3038 RMK A01 T10071073  RH  061%=      5-min Rain = 0
KPD2 100341Z 29003KT M01/M07 A3038 RMK A01 T10091073  RH  061%=      5-min Rain = 0
KPD2 100342Z 29003KT M01/M07 A3038 RMK A01 T10091074  RH  062%=      5-min Rain = 0
KPD2 100343Z 30003KT M01/M07 A3038 RMK A01 T10101074  RH  062%=      5-min Rain = 0
KPD2 100344Z 33002KT M01/M07 A3038 RMK A01 T10111074  RH  062%=      5-min Rain = 0
KPD2 100345Z 33002KT M01/M07 A3038 RMK A01 T10111073  RH  063%=      5-min Rain = 0
KPD2 100346Z 32002KT M01/M07 A3038 RMK A01 T10121073  RH  063%=      5-min Rain = 0
KPD2 100347Z 33002KT M01/M07 A3038 RMK A01 T10121072  RH  063%=      5-min Rain = 0
KPD2 100348Z 32002KT M01/M07 A3038 RMK A01 T10111072  RH  063%=      5-min Rain = 0
KPD2 100349Z 33002KT M01/M07 A3038 RMK A01 T10101071  RH  063%=      5-min Rain = 0
KPD2 100350Z 32002KT M01/M07 A3038 RMK A01 T10101072  RH  063%=      5-min Rain = 0
KPD2 100351Z 30002KT M01/M07 A3038 RMK A01 T10111072  RH  063%=      5-min Rain = 0
KPD2 100352Z 30002KT M01/M07 A3038 RMK A01 T10111073  RH  063%=      5-min Rain = 0
KPD2 100353Z 31002KT M01/M07 A3038 RMK A01 T10121073  RH  063%=      5-min Rain = 0
KPD2 100354Z 29003KT M01/M07 A3038 RMK A01 T10121072  RH  063%=      5-min Rain = 0
KPD2 100355Z 29003KT M01/M07 A3038 RMK A01 T10111073  RH  063%=      5-min Rain = 0
KPD2 100356Z 30003KT M01/M07 A3038 RMK A01 T10111073  RH  063%=      5-min Rain = 0
KPD2 100357Z 29003KT M01/M07 A3038 RMK A01 T10111073  RH  063%=      5-min Rain = 0
KPD2 100358Z 29002KT M01/M07 A3038 RMK A01 T10101073  RH  063%=      5-min Rain = 0
KPD2 100359Z 29002KT M01/M07 A3038 RMK A01 T10101073  RH  062%=      5-min Rain = 0
KPD2 100400Z 29002KT M01/M07 A3038 RMK A01 T10101073  RH  063%=      5-min Rain = 0
KPD2 100401Z 29002KT M01/M07 A3038 RMK A01 T10101073  RH  063%=      5-min Rain = 0
KPD2 100402Z 30002KT M01/M07 A3038 RMK A01 T10111073  RH  063%=      5-min Rain = 0
KPD2 100403Z 30002KT M01/M07 A3038 RMK A01 T10121074  RH  063%=      5-min Rain = 0
KPD2 100404Z 31002KT M01/M07 A3038 RMK A01 T10131074  RH  063%=      5-min Rain = 0
KPD2 100405Z 32002KT M01/M07 A3038 RMK A01 T10141074  RH  064%=      5-min Rain = 0
KPD2 100406Z 32003KT M01/M07 A3038 RMK A01 T10141073  RH  064%=      5-min Rain = 0
KPD2 100407Z 30003KT M01/M07 A3038 RMK A01 T10141073  RH  064%=      5-min Rain = 0
KPD2 100408Z 29004KT M01/M07 A3038 RMK A01 T10131073  RH  064%=      5-min Rain = 0
KPD2 100409Z 28003KT M01/M07 A3038 RMK A01 T10121073  RH  063%=      5-min Rain = 0
KPD2 100410Z 28002KT M01/M07 A3038 RMK A01 T10121073  RH  063%=      5-min Rain = 0
KPD2 100411Z 27002KT M01/M07 A3038 RMK A01 T10131073  RH  063%=      5-min Rain = 0
KPD2 100412Z 27001KT M01/M07 A3038 RMK A01 T10131073  RH  064%=      5-min Rain = 0
KPD2 100413Z 27001KT M01/M07 A3038 RMK A01 T10141073  RH  064%=      5-min Rain = 0
KPD2 100414Z 27000KT M01/M07 A3038 RMK A01 T10141073  RH  064%=      5-min Rain = 0
KPD2 100415Z 27001KT M01/M07 A3038 RMK A01 T10141073  RH  064%=      5-min Rain = 0
KPD2 100416Z 27000KT M01/M07 A3038 RMK A01 T10141073  RH  064%=      5-min Rain = 0
KPD2 100417Z 29001KT M02/M07 A3038 RMK A01 T10151073  RH  064%=      5-min Rain = 0
KPD2 100418Z 29003KT M02/M07 A3038 RMK A01 T10151073  RH  064%=      5-min Rain = 0
KPD2 100419Z 31003KT M01/M07 A3038 RMK A01 T10141073  RH  064%=      5-min Rain = 0
KPD2 100420Z 31003KT M01/M07 A3038 RMK A01 T10141074  RH  064%=      5-min Rain = 0
KPD2 100421Z 32002KT M01/M07 A3038 RMK A01 T10141074  RH  064%=      5-min Rain = 0
KPD2 100422Z 31002KT M01/M07 A3038 RMK A01 T10141074  RH  064%=      5-min Rain = 0
KPD2 100423Z 31002KT M02/M07 A3038 RMK A01 T10151074  RH  064%=      5-min Rain = 0
KPD2 100424Z 31001KT M02/M07 A3038 RMK A01 T10151074  RH  064%=      5-min Rain = 0
KPD2 100425Z 33001KT M02/M07 A3038 RMK A01 T10161074  RH  064%=      5-min Rain = 0
KPD2 100426Z 32001KT M02/M07 A3038 RMK A01 T10161074  RH  064%=      5-min Rain = 0
KPD2 100427Z 32002KT M02/M07 A3038 RMK A01 T10161074  RH  065%=      5-min Rain = 0
KPD2 100428Z 32002KT M02/M07 A3038 RMK A01 T10171074  RH  065%=      5-min Rain = 0
KPD2 100429Z 29003KT M02/M08 A3038 RMK A01 T10171075  RH  065%=      5-min Rain = 0
KPD2 100430Z 30003KT M02/M07 A3038 RMK A01 T10161074  RH  065%=      5-min Rain = 0
KPD2 100431Z 30003KT M02/M07 A3038 RMK A01 T10151074  RH  064%=      5-min Rain = 0
KPD2 100432Z 30003KT M01/M07 A3038 RMK A01 T10141074  RH  064%=      5-min Rain = 0
KPD2 100433Z 29003KT M01/M07 A3038 RMK A01 T10141074  RH  064%=      5-min Rain = 0
KPD2 100434Z 29003KT M01/M07 A3038 RMK A01 T10141074  RH  063%=      5-min Rain = 0
KPD2 100435Z 29003KT M01/M07 A3038 RMK A01 T10141074  RH  064%=      5-min Rain = 0
KPD2 100436Z 29003KT M01/M07 A3038 RMK A01 T10141074  RH  064%=      5-min Rain = 0
KPD2 100437Z 30003KT M01/M07 A3038 RMK A01 T10141074  RH  063%=      5-min Rain = 0
KPD2 100438Z 31003KT M01/M08 A3038 RMK A01 T10141075  RH  063%=      5-min Rain = 0
KPD2 100439Z 33002KT M02/M08 A3038 RMK A01 T10151075  RH  064%=      5-min Rain = 0
KPD2 100440Z 33002KT M02/M08 A3038 RMK A01 T10151075  RH  064%=      5-min Rain = 0
KPD2 100441Z 33002KT M02/M08 A3038 RMK A01 T10161075  RH  064%=      5-min Rain = 0
KPD2 100442Z 33002KT M02/M08 A3038 RMK A01 T10161075  RH  064%=      5-min Rain = 0
KPD2 100443Z 33003KT M02/M08 A3038 RMK A01 T10171076  RH  064%=      5-min Rain = 0
KPD2 100444Z 33003KT M02/M08 A3038 RMK A01 T10181076  RH  064%=      5-min Rain = 0
KPD2 100445Z 34003KT M02/M08 A3038 RMK A01 T10191076  RH  065%=      5-min Rain = 0
KPD2 100446Z 33002KT M02/M08 A3038 RMK A01 T10191076  RH  065%=      5-min Rain = 0
KPD2 100447Z 32003KT M02/M08 A3038 RMK A01 T10191075  RH  066%=      5-min Rain = 0
KPD2 100448Z 33002KT M02/M07 A3038 RMK A01 T10161073  RH  065%=      5-min Rain = 0
KPD2 100449Z 32002KT M02/M07 A3038 RMK A01 T10161073  RH  065%=      5-min Rain = 0
KPD2 100450Z 31002KT M01/M07 A3038 RMK A01 T10141073  RH  064%=      5-min Rain = 0
KPD2 100451Z 31002KT M01/M07 A3038 RMK A01 T10131074  RH  064%=      5-min Rain = 0
KPD2 100452Z 31002KT M01/M08 A3038 RMK A01 T10141075  RH  063%=      5-min Rain = 0
KPD2 100453Z 30002KT M02/M08 A3038 RMK A01 T10151075  RH  064%=      5-min Rain = 0
KPD2 100454Z 30003KT M02/M08 A3038 RMK A01 T10151075  RH  064%=      5-min Rain = 0
KPD2 100455Z 30002KT M02/M08 A3038 RMK A01 T10171076  RH  064%=      5-min Rain = 0
KPD2 100456Z 30003KT M02/M08 A3038 RMK A01 T10181076  RH  064%=      5-min Rain = 0
KPD2 100457Z 29002KT M02/M08 A3038 RMK A01 T10191076  RH  065%=      5-min Rain = 0
KPD2 100458Z 28002KT M02/M08 A3038 RMK A01 T10201077  RH  065%=      5-min Rain = 0
KPD2 100459Z 27001KT M02/M08 A3038 RMK A01 T10211077  RH  065%=      5-min Rain = 0
KPD2 100500Z 27001KT M02/M08 A3038 RMK A01 T10211077  RH  066%=      5-min Rain = 0
KPD2 100501Z 27001KT M02/M08 A3038 RMK A01 T10221077  RH  066%=      5-min Rain = 0
KPD2 100502Z 28001KT M02/M08 A3038 RMK A01 T10231076  RH  067%=      5-min Rain = 0
KPD2 100503Z 32002KT M02/M08 A3038 RMK A01 T10231076  RH  067%=      5-min Rain = 0
KPD2 100504Z 31002KT M02/M08 A3039 RMK A01 T10231076  RH  067%=      5-min Rain = 0
KPD2 100505Z 31003KT M02/M08 A3039 RMK A01 T10231076  RH  067%=      5-min Rain = 0
KPD2 100506Z 32003KT M02/M08 A3039 RMK A01 T10231075  RH  067%=      5-min Rain = 0
KPD2 100507Z 32003KT M02/M07 A3039 RMK A01 T10221074  RH  067%=      5-min Rain = 0
KPD2 100508Z 33003KT M02/M07 A3039 RMK A01 T10211074  RH  067%=      5-min Rain = 0
KPD2 100509Z 32003KT M02/M08 A3039 RMK A01 T10221075  RH  067%=      5-min Rain = 0
KPD2 100510Z 33003KT M02/M08 A3039 RMK A01 T10221075  RH  067%=      5-min Rain = 0
KPD2 100511Z 34003KT M02/M08 A3039 RMK A01 T10221075  RH  067%=      5-min Rain = 0
KPD2 100512Z 33002KT M02/M08 A3038 RMK A01 T10221075  RH  067%=      5-min Rain = 0
KPD2 100513Z 32002KT M02/M08 A3038 RMK A01 T10221075  RH  067%=      5-min Rain = 0
KPD2 100514Z 32002KT M02/M08 A3038 RMK A01 T10221075  RH  067%=      5-min Rain = 0
KPD2 100515Z 30002KT M02/M08 A3038 RMK A01 T10231075  RH  067%=      5-min Rain = 0
KPD2 100516Z 29003KT M02/M08 A3038 RMK A01 T10221075  RH  067%=      5-min Rain = 0
KPD2 100517Z 29003KT M02/M08 A3038 RMK A01 T10231076  RH  067%=      5-min Rain = 0
KPD2 100518Z 28003KT M02/M08 A3038 RMK A01 T10231076  RH  067%=      5-min Rain = 0
KPD2 100519Z 28003KT M02/M08 A3038 RMK A01 T10241077  RH  067%=      5-min Rain = 0
KPD2 100520Z 28003KT M02/M08 A3038 RMK A01 T10241077  RH  067%=      5-min Rain = 0
KPD2 100521Z 30003KT M03/M08 A3038 RMK A01 T10251077  RH  067%=      5-min Rain = 0
KPD2 100522Z 31003KT M03/M08 A3039 RMK A01 T10251077  RH  068%=      5-min Rain = 0
KPD2 100523Z 31004KT M02/M08 A3039 RMK A01 T10241075  RH  068%=      5-min Rain = 0
KPD2 100524Z 32003KT M02/M08 A3039 RMK A01 T10231075  RH  068%=      5-min Rain = 0
KPD2 100525Z 33003KT M02/M08 A3039 RMK A01 T10221075  RH  067%=      5-min Rain = 0
KPD2 100526Z 33002KT M02/M08 A3038 RMK A01 T10221075  RH  067%=      5-min Rain = 0
KPD2 100527Z 34002KT M02/M08 A3038 RMK A01 T10221076  RH  067%=      5-min Rain = 0
KPD2 100528Z 32002KT M02/M08 A3038 RMK A01 T10211075  RH  066%=      5-min Rain = 0
KPD2 100529Z 34002KT M02/M08 A3038 RMK A01 T10211075  RH  066%=      5-min Rain = 0
KPD2 100530Z 32002KT M02/M08 A3038 RMK A01 T10211076  RH  066%=      5-min Rain = 0
KPD2 100531Z 32002KT M02/M08 A3038 RMK A01 T10231077  RH  066%=      5-min Rain = 0
KPD2 100532Z 33002KT M02/M08 A3038 RMK A01 T10241078  RH  067%=      5-min Rain = 0
KPD2 100533Z 34002KT M03/M08 A3038 RMK A01 T10251078  RH  067%=      5-min Rain = 0
KPD2 100534Z 34002KT M03/M08 A3038 RMK A01 T10251078  RH  067%=      5-min Rain = 0
KPD2 100535Z 34002KT M03/M08 A3038 RMK A01 T10261078  RH  067%=      5-min Rain = 0
KPD2 100536Z 31002KT M03/M08 A3038 RMK A01 T10271078  RH  068%=      5-min Rain = 0
KPD2 100537Z 29003KT M03/M08 A3038 RMK A01 T10281079  RH  068%=      5-min Rain = 0
KPD2 100538Z 29003KT M03/M08 A3038 RMK A01 T10291078  RH  069%=      5-min Rain = 0
KPD2 100539Z 29004KT M03/M08 A3038 RMK A01 T10291078  RH  069%=      5-min Rain = 0
KPD2 100540Z 29004KT M03/M08 A3038 RMK A01 T10291077  RH  069%=      5-min Rain = 0
KPD2 100541Z 29003KT M03/M08 A3038 RMK A01 T10301077  RH  070%=      5-min Rain = 0
KPD2 100542Z 29004KT M03/M08 A3038 RMK A01 T10301077  RH  070%=      5-min Rain = 0
KPD2 100543Z 30003KT M03/M08 A3038 RMK A01 T10301078  RH  070%=      5-min Rain = 0
KPD2 100544Z 30003KT M03/M08 A3038 RMK A01 T10301077  RH  070%=      5-min Rain = 0
KPD2 100545Z 30002KT M03/M08 A3038 RMK A01 T10311077  RH  070%=      5-min Rain = 0
KPD2 100546Z 29002KT M03/M08 A3038 RMK A01 T10321078  RH  070%=      5-min Rain = 0
KPD2 100547Z 29002KT M03/M08 A3038 RMK A01 T10321077  RH  071%=      5-min Rain = 0
KPD2 100548Z 30002KT M03/M08 A3038 RMK A01 T10321077  RH  071%=      5-min Rain = 0
KPD2 100549Z 30002KT M03/M08 A3038 RMK A01 T10321077  RH  071%=      5-min Rain = 0
KPD2 100550Z 31002KT M03/M08 A3038 RMK A01 T10321077  RH  071%=      5-min Rain = 0
KPD2 100551Z 32002KT M03/M08 A3038 RMK A01 T10321077  RH  071%=      5-min Rain = 0
KPD2 100552Z 33002KT M03/M08 A3038 RMK A01 T10311077  RH  071%=      5-min Rain = 0
KPD2 100553Z 34003KT M03/M08 A3038 RMK A01 T10311076  RH  071%=      5-min Rain = 0
KPD2 100554Z 34003KT M03/M08 A3038 RMK A01 T10301076  RH  071%=      5-min Rain = 0
KPD2 100555Z 33003KT M03/M08 A3038 RMK A01 T10291075  RH  070%=      5-min Rain = 0
KPD2 100556Z 31004KT M03/M08 A3038 RMK A01 T10281076  RH  070%=      5-min Rain = 0
KPD2 100557Z 32004KT M03/M08 A3038 RMK A01 T10271076  RH  069%=      5-min Rain = 0
KPD2 100558Z 31004KT M03/M08 A3038 RMK A01 T10271076  RH  069%=      5-min Rain = 0
KPD2 100559Z 31004KT M03/M08 A3038 RMK A01 T10271076  RH  069%=      5-min Rain = 0

Page generated in 0.17 seconds.